M I D A S
Marine Information and Data Acquisition System
Tripno 879 of the Zeeleeuw from 2005-04-07 07:15:14 to 2005-04-07 10:26:14
Back to CruiseResearch ActivitiesStationsMapUnderway DataData graphs

EquipmentUnitsComment
TimeDGPSUTC
LatitudeDGPSDM.mWGS84
LongitudeDGPSDM.mWGS84
TemperatureSBE03/SBE38deg celciusITS90
ConductivitySBE21S/mITS90
SalinitySBE21 Practical Salinity Units
ChlorophylAChelsea fluorimeterg/lCalibrated in Aceton
Missing or incorrect values are displayed as -999
Sea surface data collected by the RV Zeeleeuw from 2005-04-07 07:18:36 to 2005-04-07 10:36:32
                                                                                    Next 1000 lines
Time Latitude Longitude Temperature Conductivity Salinity ChlorophylA
2005-04-07 07:18:46 51°13.594 2°56.098 10.4129 3.551039 27.801956 -0.241899
2005-04-07 07:18:51 51°13.596 2°56.094 10.2828 2.151219 15.855811 7.106751
2005-04-07 07:18:56 51°13.598 2°56.09 10.1682 3.317491 24.993008 7.74723
2005-04-07 07:19:02 51°13.599 2°56.083 9.9779 3.442322 27.027441 5.792084
2005-04-07 07:19:07 51°13.601 2°56.078 9.9347 3.442322 27.027441 5.792084
2005-04-07 07:19:12 51°13.603 2°56.072 9.7689 3.389988 27.689636 5.657247
2005-04-07 07:19:16 51°13.605 2°56.067 9.6399 3.218334 27.031311 8.927059
2005-04-07 07:19:22 51°13.607 2°56.058 9.5123 3.02567 25.903923 8.556255
2005-04-07 07:19:27 51°13.609 2°56.052 9.4849 3.00041 25.982088 7.646101
2005-04-07 07:19:32 51°13.611 2°56.044 9.4037 2.925576 25.531802 8.387708
2005-04-07 07:19:37 51°13.614 2°56.036 9.3289 2.925576 25.531802 8.387708
2005-04-07 07:19:42 51°13.615 2°56.028 9.2946 2.901372 25.473898 9.230443
2005-04-07 07:19:47 51°13.617 2°56.022 9.2461 2.899374 25.591416 9.668665
2005-04-07 07:19:51 51°13.618 2°56.017 9.1929 2.887799 25.620668 10.174306
2005-04-07 07:19:57 51°13.619 2°56.014 9.1934 2.858018 25.421226 10.679947
2005-04-07 07:20:02 51°13.62 2°56.013 9.1227 2.882435 25.769447 10.848494
2005-04-07 07:20:07 51°13.62 2°56.014 9.1017 2.882435 25.769447 10.848494
2005-04-07 07:20:11 51°13.62 2°56.016 9.1125 2.863808 25.649094 10.983332
2005-04-07 07:20:17 51°13.619 2°56.021 9.0939 2.885278 25.927958 10.949623
2005-04-07 07:20:22 51°13.618 2°56.024 9.0984 2.861073 25.739775 10.713657
2005-04-07 07:20:27 51°13.617 2°56.026 9.0561 2.853813 25.711086 10.713657
2005-04-07 07:20:32 51°13.617 2°56.027 9.0766 2.869493 25.903387 10.612529
2005-04-07 07:20:36 51°13.618 2°56.027 9.0623 2.869493 25.903387 10.612529
2005-04-07 07:20:42 51°13.619 2°56.025 9.1442 2.867179 25.915257 10.342853
2005-04-07 07:20:46 51°13.62 2°56.023 9.074 2.857392 25.844387 10.410272
2005-04-07 07:20:52 51°13.621 2°56.02 9.0618 2.878861 26.078738 10.309144
2005-04-07 07:20:56 51°13.623 2°56.016 9.0545 2.88265 26.132728 10.342853
2005-04-07 07:21:02 51°13.625 2°56.011 9.0316 2.889175 26.208147 10.208016
2005-04-07 07:21:07 51°13.627 2°56.005 9.0118 2.889175 26.208147 10.208016
2005-04-07 07:21:12 51°13.629 2°55.999 8.9913 2.864759 25.973693 9.904631
2005-04-07 07:21:16 51°13.631 2°55.993 8.9817 2.715764 24.476942 9.904631
2005-04-07 07:21:22 51°13.634 2°55.985 8.9915 2.81551 25.474055 9.736084
2005-04-07 07:21:27 51°13.636 2°55.978 8.9826 2.85834 25.911945 9.668665
2005-04-07 07:21:32 51°13.639 2°55.971 8.9837 2.868338 26.027955 9.567537
2005-04-07 07:21:36 51°13.642 2°55.963 8.9604 2.868338 26.027955 9.567537
2005-04-07 07:21:42 51°13.646 2°55.954 8.9649 2.868443 26.048744 9.264153
2005-04-07 07:21:46 51°13.649 2°55.947 8.9732 2.878125 26.160085 9.837212
2005-04-07 07:21:52 51°13.652 2°55.937 8.9336 2.874442 26.138816 9.634956
2005-04-07 07:21:57 51°13.656 2°55.929 8.9067 2.873285 26.133829 9.601247
2005-04-07 07:22:02 51°13.659 2°55.92 8.9123 2.877284 26.178137 9.567537
2005-04-07 07:22:06 51°13.662 2°55.911 8.9201 2.877284 26.178137 9.567537
2005-04-07 07:22:12 51°13.666 2°55.902 8.9028 2.864655 26.059941 9.4327
2005-04-07 07:22:17 51°13.669 2°55.892 8.9191 2.87118 26.132581 9.4327
2005-04-07 07:22:22 51°13.673 2°55.882 8.8751 2.886019 26.28329 9.500118
2005-04-07 07:22:27 51°13.675 2°55.873 8.8777 2.888861 26.329407 9.634956
2005-04-07 07:22:32 51°13.679 2°55.863 8.8508 2.89507 26.406408 9.837212
2005-04-07 07:22:37 51°13.682 2°55.852 8.8683 2.89507 26.406408 9.837212
2005-04-07 07:22:42 51°13.684 2°55.842 8.8269 2.902648 26.490558 9.803503
2005-04-07 07:22:46 51°13.687 2°55.833 8.8314 2.910015 26.569602 9.904631
2005-04-07 07:22:52 51°13.689 2°55.821 8.8033 2.918961 26.663988 10.039469
2005-04-07 07:22:56 51°13.69 2°55.813 8.8233 2.921172 26.694881 10.106888
2005-04-07 07:23:02 51°13.692 2°55.8 8.8179 2.928118 26.777263 10.477691
2005-04-07 07:23:06 51°13.693 2°55.792 8.7859 2.928118 26.777263 10.477691
2005-04-07 07:23:12 51°13.694 2°55.781 8.7858 2.944749 26.959372 10.814785
2005-04-07 07:23:17 51°13.695 2°55.772 8.8089 2.946433 26.988236 10.646238
2005-04-07 07:23:22 51°13.695 2°55.762 8.8087 2.958116 27.119489 10.781076
2005-04-07 07:23:27 51°13.695 2°55.754 8.7991 2.970642 27.258203 10.679947
2005-04-07 07:23:32 51°13.696 2°55.747 8.7886 2.972116 27.273755 10.713657
2005-04-07 07:23:36 51°13.696 2°55.743 8.7979 2.972116 27.273755 10.713657
2005-04-07 07:23:42 51°13.696 2°55.74 8.7839 2.984221 27.403976 10.54511
2005-04-07 07:23:47 51°13.697 2°55.74 8.7813 2.988958 27.462165 10.612529
2005-04-07 07:23:52 51°13.698 2°55.742 8.7829 2.989274 27.466004 10.578819
2005-04-07 07:23:56 51°13.699 2°55.742 8.8013 2.988537 27.459169 10.342853
2005-04-07 07:24:02 51°13.7 2°55.743 8.8045 2.985063 27.427126 10.342853
2005-04-07 07:24:07 51°13.7 2°55.742 8.8278 2.985063 27.427126 10.342853
2005-04-07 07:24:12 51°13.699 2°55.741 8.8568 2.988326 27.462763 10.174306
2005-04-07 07:24:16 51°13.698 2°55.739 8.8707 2.986221 27.442684 10.309144
2005-04-07 07:24:22 51°13.697 2°55.737 8.8844 2.976011 27.345497 10.073178
2005-04-07 07:24:27 51°13.695 2°55.734 8.894 2.976221 27.347631 10.208016
2005-04-07 07:24:32 51°13.693 2°55.732 8.8939 2.96559 27.238599 9.904631
2005-04-07 07:24:36 51°13.692 2°55.73 8.8902 2.96559 27.238599 9.904631
2005-04-07 07:24:42 51°13.691 2°55.729 8.8673 2.95959 27.168986 9.97205
2005-04-07 07:24:47 51°13.692 2°55.729 8.8679 2.923909 26.791773 10.039469
2005-04-07 07:24:52 51°13.694 2°55.73 8.8636 2.910753 26.645299 10.073178
2005-04-07 07:24:56 51°13.696 2°55.73 8.8651 2.880969 26.332093 9.97205
2005-04-07 07:25:02 51°13.7 2°55.729 8.875 2.87276 26.239701 9.837212
2005-04-07 07:25:07 51°13.703 2°55.728 8.8712 2.87276 26.239701 9.837212
2005-04-07 07:25:11 51°13.707 2°55.726 8.8772 2.865288 26.163289 9.938341
2005-04-07 07:25:16 51°13.711 2°55.723 8.8837 2.877706 26.293147 10.073178
2005-04-07 07:25:21 51°13.717 2°55.719 8.8875 2.884757 26.369044 9.938341
2005-04-07 07:25:26 51°13.722 2°55.714 8.8812 2.886757 26.392855 10.039469
2005-04-07 07:25:31 51°13.728 2°55.709 8.8943 2.87518 26.277437 9.904631
2005-04-07 07:25:36 51°13.735 2°55.703 8.8902 2.87518 26.277437 9.904631
2005-04-07 07:25:41 51°13.742 2°55.697 8.8898 2.867498 26.200068 9.938341
2005-04-07 07:25:46 51°13.749 2°55.691 8.9089 2.873918 26.264717 10.039469
2005-04-07 07:25:52 51°13.757 2°55.685 8.9177 2.858868 26.108967 9.97205
2005-04-07 07:25:56 51°13.763 2°55.68 8.9317 2.857606 26.092637 9.904631
2005-04-07 07:26:01 51°13.772 2°55.673 8.9296 2.849081 26.00629 9.803503
2005-04-07 07:26:06 51°13.78 2°55.667 8.9469 2.849081 26.00629 9.803503
2005-04-07 07:26:12 51°13.788 2°55.659 8.9404 2.865919 26.172669 10.140597
2005-04-07 07:26:16 51°13.795 2°55.654 8.933 2.870234 26.213671 9.837212
2005-04-07 07:26:21 51°13.804 2°55.647 8.9342 2.851081 26.01557 9.837212
2005-04-07 07:26:26 51°13.813 2°55.64 8.9326 2.839294 25.889328 9.870922
2005-04-07 07:26:31 51°13.821 2°55.634 8.954 2.828771 25.776502 9.97205
2005-04-07 07:26:36 51°13.83 2°55.627 8.9508 2.828771 25.776502 9.97205
2005-04-07 07:26:40 51°13.836 2°55.622 8.95 2.833086 25.812656 9.938341
2005-04-07 07:26:46 51°13.848 2°55.614 8.942 2.828876 25.767439 9.97205
2005-04-07 07:26:52 51°13.858 2°55.607 8.9385 2.826351 25.74329 9.803503
2005-04-07 07:26:56 51°13.865 2°55.601 8.9446 2.827929 25.759722 9.870922
2005-04-07 07:27:00 51°13.873 2°55.596 8.929 2.817406 25.653574 9.904631
2005-04-07 07:27:06 51°13.884 2°55.588 8.9344 2.817406 25.653574 9.904631
2005-04-07 07:27:11 51°13.894 2°55.581 8.9345 2.81667 25.643227 9.702375
2005-04-07 07:27:16 51°13.903 2°55.574 8.9087 2.810566 25.577907 9.938341
2005-04-07 07:27:20 51°13.91 2°55.569 8.9116 2.81688 25.643561 9.601247
2005-04-07 07:27:26 51°13.921 2°55.561 8.8932 2.817511 25.65226 9.601247
2005-04-07 07:27:30 51°13.93 2°55.555 8.8704 2.821405 25.693678 9.736084
2005-04-07 07:27:36 51°13.941 2°55.547 8.8776 2.821405 25.693678 9.736084
2005-04-07 07:27:42 51°13.952 2°55.539 8.8597 2.818774 25.671442 9.668665
2005-04-07 07:27:46 51°13.959 2°55.534 8.8521 2.823404 25.718483 9.500118
2005-04-07 07:27:50 51°13.968 2°55.528 8.8426 2.828245 25.774794 9.39899
2005-04-07 07:27:56 51°13.979 2°55.52 8.8265 2.835822 25.856838 9.4327
2005-04-07 07:27:59 51°13.984 2°55.516 8.8209 2.841294 25.923192 9.196734
2005-04-07 07:28:06 51°13.998 2°55.506 8.8192 2.841294 25.923192 9.196734
2005-04-07 07:28:12 51°14.009 2°55.498 8.8053 2.852554 26.04423 9.095606
2005-04-07 07:28:16 51°14.016 2°55.493 8.8163 2.865604 26.184025 9.365281
2005-04-07 07:28:20 51°14.025 2°55.487 8.8064 2.882653 26.362475 9.500118
2005-04-07 07:28:26 51°14.036 2°55.479 8.7982 2.862342 26.168739 9.4327
2005-04-07 07:28:30 51°14.044 2°55.473 8.7889 2.891704 26.474566 9.533828
2005-04-07 07:28:36 51°14.054 2°55.466 8.8013 2.891704 26.474566 9.533828
2005-04-07 07:28:41 51°14.065 2°55.459 8.7971 2.922015 26.788765 9.97205
2005-04-07 07:28:46 51°14.074 2°55.452 8.8038 2.912437 26.698146 10.039469
2005-04-07 07:28:50 51°14.082 2°55.446 8.7923 2.935277 26.93162 9.97205
2005-04-07 07:28:56 51°14.093 2°55.438 8.8021 2.942434 27.010324 10.342853
2005-04-07 07:29:02 51°14.104 2°55.43 8.8239 2.951065 27.10339 10.477691
2005-04-07 07:29:06 51°14.112 2°55.423 8.8189 2.951065 27.10339 10.477691
2005-04-07 07:29:11 51°14.123 2°55.416 8.8295 2.934224 26.93596 10.983332
2005-04-07 07:29:16 51°14.133 2°55.408 8.838 2.943592 27.030825 10.949623
2005-04-07 07:29:22 51°14.146 2°55.397 8.8198 2.937698 26.972381 11.253007
2005-04-07 07:29:26 51°14.156 2°55.389 8.8148 2.926857 26.862001 11.488973
2005-04-07 07:29:30 51°14.164 2°55.382 8.7957 2.910648 26.695535 11.421554
2005-04-07 07:29:36 51°14.176 2°55.371 8.7961 2.910648 26.695535 11.421554
2005-04-07 07:29:41 51°14.187 2°55.36 8.7894 2.917068 26.753643 11.421554
2005-04-07 07:29:46 51°14.197 2°55.35 8.775 2.900439 26.581221 11.151879
2005-04-07 07:29:52 51°14.209 2°55.336 8.7663 2.877707 26.347388 11.050751
2005-04-07 07:29:56 51°14.218 2°55.325 8.7659 2.904439 26.61978 11.08446
2005-04-07 07:30:02 51°14.228 2°55.31 8.752 2.910648 26.689343 11.354136
2005-04-07 07:30:06 51°14.237 2°55.299 8.7727 2.910648 26.689343 11.354136
2005-04-07 07:30:10 51°14.244 2°55.287 8.7576 2.915595 26.745565 11.522683
2005-04-07 07:30:15 51°14.253 2°55.273 8.7569 2.912753 26.721782 11.556392
2005-04-07 07:30:21 51°14.264 2°55.256 8.7599 2.937487 26.981519 11.253007
2005-04-07 07:30:26 51°14.271 2°55.243 8.7212 2.940961 27.022984 11.792358
2005-04-07 07:30:31 51°14.281 2°55.227 8.717 2.944013 27.059577 11.792358
2005-04-07 07:30:36 51°14.288 2°55.213 8.7071 2.944013 27.059577 11.792358
2005-04-07 07:30:41 51°14.297 2°55.196 8.6917 2.946329 27.08746 11.724939
2005-04-07 07:30:46 51°14.305 2°55.181 8.7122 2.956644 27.192726 11.758648
2005-04-07 07:30:52 51°14.315 2°55.164 8.7052 2.958749 27.217881 11.927195
2005-04-07 07:30:56 51°14.322 2°55.151 8.6905 2.964433 27.280012 11.69123
2005-04-07 07:31:01 51°14.332 2°55.134 8.6927 2.980643 27.458701 11.859777
2005-04-07 07:31:06 51°14.341 2°55.118 8.7133 2.980643 27.458701 11.859777
2005-04-07 07:31:10 51°14.348 2°55.106 8.7014 2.996538 27.629991 11.927195
2005-04-07 07:31:16 51°14.359 2°55.089 8.6872 2.998433 27.659572 12.095742
2005-04-07 07:31:21 51°14.37 2°55.072 8.6761 3.012117 27.800251 12.163161
2005-04-07 07:31:26 51°14.379 2°55.059 8.6788 3.015065 27.834821 11.893486
2005-04-07 07:31:32 51°14.393 2°55.044 8.6785 2.999275 27.675233 11.758648
2005-04-07 07:31:36 51°14.403 2°55.033 8.6583 2.999275 27.675233 11.758648
2005-04-07 07:31:42 51°14.418 2°55.02 8.649 3.003486 27.718123 11.65752
2005-04-07 07:31:46 51°14.43 2°55.011 8.6684 3.013486 27.820671 11.522683
2005-04-07 07:31:52 51°14.446 2°55 8.6449 3.004222 27.733378 11.590101
2005-04-07 07:31:56 51°14.457 2°54.993 8.6195 3.005907 27.755067 11.219298
2005-04-07 07:32:02 51°14.474 2°54.982 8.5705 2.997696 27.67526 11.253007
2005-04-07 07:32:06 51°14.486 2°54.975 8.5518 2.997696 27.67526 11.253007
2005-04-07 07:32:10 51°14.499 2°54.967 8.5403 2.994538 27.648234 11.185589
2005-04-07 07:32:16 51°14.515 2°54.958 8.5379 2.989907 27.608759 11.556392
2005-04-07 07:32:22 51°14.533 2°54.948 8.5336 3.01117 27.829468 11.488973
2005-04-07 07:32:26 51°14.545 2°54.941 8.4785 3.029803 28.029465 11.893486
2005-04-07 07:32:31 51°14.561 2°54.933 8.444 3.061701 28.376748 11.994614
2005-04-07 07:32:36 51°14.576 2°54.925 8.4355 3.061701 28.376748 11.994614
2005-04-07 07:32:42 51°14.594 2°54.914 8.4472 3.085073 28.638239 12.635093
2005-04-07 07:32:46 51°14.607 2°54.906 8.4366 3.104972 28.866057 12.533965
2005-04-07 07:32:51 51°14.621 2°54.9 8.4043 3.129293 29.12838 12.938477
2005-04-07 07:32:56 51°14.637 2°54.891 8.416 3.119607 29.041626 12.904768
2005-04-07 07:33:02 51°14.655 2°54.882 8.3942 3.164146 29.52813 13.107024
2005-04-07 07:33:06 51°14.668 2°54.874 8.3857 3.164146 29.52813 13.107024
2005-04-07 07:33:11 51°14.684 2°54.866 8.3731 3.19026 29.825826 13.140734
2005-04-07 07:33:16 51°14.698 2°54.86 8.3954 3.198473 29.919235 13.073315
2005-04-07 07:33:22 51°14.716 2°54.85 8.3949 3.211426 30.061116 12.567674
2005-04-07 07:33:26 51°14.73 2°54.844 8.3918 3.214901 30.109851 12.736221
2005-04-07 07:33:31 51°14.746 2°54.839 8.3897 3.228696 30.260014 12.904768
2005-04-07 07:33:36 51°14.76 2°54.834 8.392 3.228696 30.260014 12.904768
2005-04-07 07:33:42 51°14.779 2°54.829 8.3769 3.225221 30.238886 12.500255
2005-04-07 07:33:46 51°14.791 2°54.826 8.3782 3.213848 30.131502 12.635093
2005-04-07 07:33:51 51°14.809 2°54.822 8.3673 3.24207 30.421705 12.567674
2005-04-07 07:33:56 51°14.823 2°54.818 8.3741 3.23354 30.333096 12.365418
2005-04-07 07:34:00 51°14.836 2°54.815 8.3751 3.249126 30.500048 12.365418
2005-04-07 07:34:06 51°14.856 2°54.811 8.3712 3.249126 30.500048 12.365418
2005-04-07 07:34:11 51°14.872 2°54.808 8.3495 3.248494 30.495632 12.196871
2005-04-07 07:34:16 51°14.889 2°54.805 8.3678 3.254286 30.561605 12.365418
2005-04-07 07:34:21 51°14.903 2°54.802 8.3614 3.243229 30.450216 12.635093
2005-04-07 07:34:26 51°14.92 2°54.799 8.3601 3.264186 30.672525 12.365418
2005-04-07 07:34:30 51°14.933 2°54.797 8.3667 3.25892 30.619171 12.129452
2005-04-07 07:34:36 51°14.951 2°54.793 8.3648 3.25892 30.619171 12.129452
2005-04-07 07:34:41 51°14.968 2°54.789 8.379 3.25713 30.601983 12.668802
2005-04-07 07:34:46 51°14.984 2°54.787 8.3682 3.274191 30.785374 12.904768
2005-04-07 07:34:51 51°15 2°54.784 8.3711 3.255761 30.594942 13.039606
2005-04-07 07:34:56 51°15.014 2°54.783 8.3788 3.277139 30.818267 13.309281
2005-04-07 07:35:02 51°15.033 2°54.782 8.383 3.277245 30.817912 13.410409
2005-04-07 07:35:06 51°15.048 2°54.781 8.3725 3.277245 30.817912 13.410409
2005-04-07 07:35:12 51°15.065 2°54.78 8.3714 3.280299 30.848276 13.3767
2005-04-07 07:35:16 51°15.078 2°54.782 8.3684 3.2823 30.866943 14.017178
2005-04-07 07:35:19 51°15.089 2°54.78 8.3731 3.26566 30.692929 13.511537
2005-04-07 07:35:26 51°15.111 2°54.783 8.3674 3.285143 30.894387 14.253144
2005-04-07 07:35:31 51°15.127 2°54.781 8.3643 3.286196 30.903905 13.781212
2005-04-07 07:35:36 51°15.141 2°54.782 8.3673 3.286196 30.903905 13.781212
2005-04-07 07:35:42 51°15.16 2°54.782 8.3702 3.272611 30.761676 14.017178
2005-04-07 07:35:46 51°15.174 2°54.782 8.375 3.293463 30.981819 14.017178
2005-04-07 07:35:51 51°15.19 2°54.784 8.3635 3.296623 31.016945 14.084597
2005-04-07 07:35:56 51°15.204 2°54.785 8.3695 3.268925 30.728365 13.848631
2005-04-07 07:36:01 51°15.221 2°54.79 8.3655 3.279246 30.836579 14.320563
2005-04-07 07:36:06 51°15.235 2°54.793 8.369 3.279246 30.836579 14.320563
2005-04-07 07:36:11 51°15.252 2°54.798 8.3699 3.291673 30.966805 13.882341
2005-04-07 07:36:16 51°15.266 2°54.802 8.3636 3.287671 30.922908 13.781212
2005-04-07 07:36:21 51°15.283 2°54.807 8.364 3.287144 30.915965 13.477828
2005-04-07 07:36:26 51°15.299 2°54.812 8.3713 3.280509 30.849018 13.208153
2005-04-07 07:36:32 51°15.316 2°54.817 8.3705 3.293779 30.988761 13.713794
2005-04-07 07:36:36 51°15.328 2°54.821 8.3622 3.293779 30.988761 13.713794
2005-04-07 07:36:42 51°15.347 2°54.826 8.3562 3.290409 30.95509 13.107024
2005-04-07 07:36:46 51°15.361 2°54.831 8.3559 3.290936 30.961308 13.3767
2005-04-07 07:36:52 51°15.378 2°54.838 8.3545 3.286618 30.918487 12.938477
2005-04-07 07:36:56 51°15.393 2°54.842 8.3552 3.289567 30.949224 13.140734
2005-04-07 07:37:01 51°15.408 2°54.848 8.3539 3.288303 30.935322 13.107024
2005-04-07 07:37:06 51°15.423 2°54.854 8.3484 3.288303 30.935322 13.107024
2005-04-07 07:37:12 51°15.44 2°54.861 8.351 3.265976 30.701279 12.938477
2005-04-07 07:37:16 51°15.452 2°54.866 8.3389 3.266924 30.714765 13.140734
2005-04-07 07:37:22 51°15.47 2°54.873 8.3428 3.290093 30.961277 12.466546
2005-04-07 07:37:26 51°15.484 2°54.88 8.3387 3.293148 30.993854 13.107024
2005-04-07 07:37:30 51°15.496 2°54.887 8.3396 3.28409 30.900151 12.904768
2005-04-07 07:37:35 51°15.512 2°54.893 8.3437 3.28409 30.900151 12.904768
2005-04-07 07:37:41 51°15.53 2°54.904 8.3375 3.290936 30.972981 12.837349
2005-04-07 07:37:46 51°15.545 2°54.913 8.341 3.283353 30.896106 12.871059
2005-04-07 07:37:51 51°15.559 2°54.923 8.3405 3.287777 30.94587 13.005896
2005-04-07 07:37:56 51°15.572 2°54.933 8.3437 3.293885 31.011041 12.938477
2005-04-07 07:38:01 51°15.587 2°54.945 8.344 3.289146 30.964527 13.107024
2005-04-07 07:38:06 51°15.601 2°54.958 8.3382 3.289146 30.964527 13.107024
2005-04-07 07:38:11 51°15.614 2°54.971 8.3337 3.285038 30.921689 13.578956
2005-04-07 07:38:16 51°15.626 2°54.981 8.3412 3.276613 30.835297 13.140734
2005-04-07 07:38:21 51°15.639 2°54.995 8.3337 3.276297 30.832003 13.612665
2005-04-07 07:38:26 51°15.652 2°55.008 8.3307 3.279246 30.862019 13.747503
2005-04-07 07:38:30 51°15.664 2°55.02 8.3352 3.285565 30.926452 14.050888
2005-04-07 07:38:35 51°15.676 2°55.036 8.3343 3.285565 30.926452 14.050888
2005-04-07 07:38:42 51°15.69 2°55.058 8.3299 3.279246 30.859836 14.286853
2005-04-07 07:38:46 51°15.699 2°55.07 8.3298 3.285354 30.926442 14.4554
2005-04-07 07:38:51 51°15.711 2°55.088 8.333 3.277877 30.851381 14.050888
2005-04-07 07:38:56 51°15.722 2°55.106 8.333 3.277245 30.846247 14.050888
2005-04-07 07:39:01 51°15.732 2°55.124 8.3267 3.276403 30.840371 14.792494
2005-04-07 07:39:06 51°15.743 2°55.141 8.3308 3.276403 30.840371 14.792494
2005-04-07 07:39:12 51°15.754 2°55.161 8.3277 3.275244 30.827565 13.680084
2005-04-07 07:39:16 51°15.762 2°55.176 8.3301 3.275981 30.836706 14.354272
2005-04-07 07:39:22 51°15.775 2°55.197 8.331 3.27398 30.815841 13.3767
2005-04-07 07:39:26 51°15.783 2°55.216 8.3224 3.270294 30.777413 14.657657
2005-04-07 07:39:32 51°15.795 2°55.234 8.3247 3.270084 30.774491 13.275571
2005-04-07 07:39:36 51°15.802 2°55.25 8.3227 3.270084 30.774491 13.275571
2005-04-07 07:39:42 51°15.814 2°55.273 8.3246 3.267977 30.753261 14.050888
2005-04-07 07:39:46 51°15.823 2°55.287 8.3236 3.26703 30.744831 12.972187
2005-04-07 07:39:51 51°15.834 2°55.309 8.3245 3.269347 30.769709 13.949759
2005-04-07 07:39:56 51°15.846 2°55.327 8.3238 3.262291 30.696886 13.444118
2005-04-07 07:40:02 51°15.858 2°55.349 8.3229 3.264818 30.726127 12.938477
2005-04-07 07:40:06 51°15.868 2°55.367 8.3251 3.264818 30.726127 12.938477
2005-04-07 07:40:11 51°15.879 2°55.389 8.3268 3.264502 30.724283 13.477828
2005-04-07 07:40:16 51°15.888 2°55.407 8.324 3.267872 30.760141 12.365418
2005-04-07 07:40:21 51°15.899 2°55.431 8.3163 3.266609 30.748416 12.702512
2005-04-07 07:40:26 51°15.908 2°55.451 8.3231 3.26724 30.756455 13.039606
2005-04-07 07:40:32 51°15.918 2°55.48 8.3148 3.261554 30.697889 12.567674
2005-04-07 07:40:36 51°15.928 2°55.501 8.3235 3.261554 30.697889 12.567674
2005-04-07 07:40:40 51°15.932 2°55.518 8.3156 3.26882 30.772201 12.736221
2005-04-07 07:40:46 51°15.945 2°55.549 8.311 3.262291 30.702678 11.994614
2005-04-07 07:40:50 51°15.952 2°55.568 8.3091 3.255551 30.633154 12.567674
2005-04-07 07:40:55 51°15.962 2°55.59 8.3117 3.263028 30.71326 12.095742
2005-04-07 07:41:01 51°15.972 2°55.62 8.3097 3.263555 30.720923 11.994614
2005-04-07 07:41:06 51°15.981 2°55.645 8.3113 3.263555 30.720923 11.994614
2005-04-07 07:41:11 51°15.989 2°55.666 8.3146 3.255972 30.642603 12.567674
2005-04-07 07:41:16 51°15.998 2°55.691 8.3065 3.252076 30.603438 12.163161
2005-04-07 07:41:20 51°16.007 2°55.713 8.3229 3.259131 30.680602 12.095742
2005-04-07 07:41:26 51°16.016 2°55.743 8.3119 3.252076 30.607048 12.23058
2005-04-07 07:41:31 51°16.026 2°55.767 8.3129 3.261343 30.704385 12.196871
2005-04-07 07:41:36 51°16.034 2°55.789 8.3127 3.261343 30.704385 12.196871
2005-04-07 07:41:40 51°16.04 2°55.809 8.3025 3.259869 30.689012 12.196871
2005-04-07 07:41:46 51°16.053 2°55.842 8.3074 3.258921 30.678406 12.264289
2005-04-07 07:41:51 51°16.062 2°55.867 8.3077 3.258394 30.672916 12.028324
2005-04-07 07:41:56 51°16.071 2°55.893 8.3127 3.257446 30.662311 12.365418
2005-04-07 07:42:00 51°16.077 2°55.91 8.3112 3.260816 30.69817 11.960905
2005-04-07 07:42:06 51°16.087 2°55.944 8.3105 3.260816 30.69817 11.960905
2005-04-07 07:42:10 51°16.095 2°55.965 8.3071 3.255235 30.642148 12.432836
2005-04-07 07:42:15 51°16.104 2°55.99 8.3019 3.256499 30.657494 12.028324
2005-04-07 07:42:21 51°16.115 2°56.019 8.3093 3.256604 30.659315 12.062033
2005-04-07 07:42:26 51°16.124 2°56.043 8.2996 3.252813 30.617621 12.028324
2005-04-07 07:42:31 51°16.134 2°56.067 8.2975 3.257446 30.663758 11.893486
2005-04-07 07:42:36 51°16.143 2°56.09 8.2971 3.257446 30.663758 11.893486
2005-04-07 07:42:41 51°16.155 2°56.117 8.3015 3.259237 30.683147 11.219298
2005-04-07 07:42:46 51°16.164 2°56.141 8.3106 3.245546 30.542609 11.69123
2005-04-07 07:42:52 51°16.173 2°56.167 8.3018 3.254708 30.640997 11.826067
2005-04-07 07:42:56 51°16.181 2°56.191 8.2985 3.251654 30.609158 11.556392
2005-04-07 07:43:00 51°16.189 2°56.207 8.2997 3.250391 30.600317 11.623811
2005-04-07 07:43:06 51°16.2 2°56.236 8.2944 3.250391 30.600317 11.623811
2005-04-07 07:43:12 51°16.212 2°56.263 8.2896 3.245757 30.552013 11.927195
2005-04-07 07:43:16 51°16.22 2°56.282 8.2936 3.245336 30.546902 11.590101
2005-04-07 07:43:22 51°16.233 2°56.31 8.2994 3.248179 30.574375 12.129452
2005-04-07 07:43:26 51°16.241 2°56.329 8.2898 3.244283 30.534484 12.062033
2005-04-07 07:43:31 51°16.252 2°56.355 8.2926 3.24839 30.579457 12.365418
2005-04-07 07:43:36 51°16.261 2°56.379 8.2943 3.24839 30.579457 12.365418
2005-04-07 07:43:42 51°16.271 2°56.406 8.2892 3.2466 30.563681 12.129452
2005-04-07 07:43:46 51°16.278 2°56.425 8.2889 3.241545 30.514592 12.500255
2005-04-07 07:43:51 51°16.289 2°56.451 8.2842 3.250391 30.607541 12.23058
2005-04-07 07:43:56 51°16.297 2°56.472 8.2861 3.244704 30.546805 12.466546
2005-04-07 07:44:01 51°16.308 2°56.498 8.2794 3.231014 30.404849 12.365418
2005-04-07 07:44:06 51°16.318 2°56.522 8.2834 3.231014 30.404849 12.365418
2005-04-07 07:44:12 51°16.329 2°56.547 8.293 3.245757 30.559948 11.859777
2005-04-07 07:44:16 51°16.335 2°56.566 8.2852 3.246284 30.566159 12.567674
2005-04-07 07:44:22 51°16.346 2°56.595 8.2889 3.239544 30.496617 12.432836
2005-04-07 07:44:26 51°16.354 2°56.616 8.2842 3.243441 30.540841 12.466546
2005-04-07 07:44:31 51°16.363 2°56.639 8.2818 3.240702 30.514456 12.533965
2005-04-07 07:44:36 51°16.371 2°56.665 8.2835 3.240702 30.514456 12.533965
2005-04-07 07:44:41 51°16.379 2°56.686 8.2812 3.230277 30.406501 12.76993
2005-04-07 07:44:46 51°16.387 2°56.71 8.2764 3.226907 30.368517 12.163161
2005-04-07 07:44:51 51°16.397 2°56.737 8.2691 3.237227 30.476066 12.062033
2005-04-07 07:44:56 51°16.406 2°56.759 8.2689 3.243756 30.544857 12.432836
2005-04-07 07:44:59 51°16.412 2°56.776 8.2722 3.239228 30.499084 11.826067
2005-04-07 07:45:06 51°16.425 2°56.81 8.2658 3.239228 30.499084 11.826067
2005-04-07 07:45:10 51°16.432 2°56.829 8.27 3.237859 30.484812 12.163161
2005-04-07 07:45:15 51°16.442 2°56.854 8.287 3.242387 30.534187 12.163161
2005-04-07 07:45:22 51°16.452 2°56.888 8.2607 3.224064 30.34606 11.859777
2005-04-07 07:45:26 51°16.459 2°56.908 8.2677 3.232594 30.439992 11.286717
2005-04-07 07:45:32 51°16.469 2°56.937 8.2669 3.229961 30.413982 10.814785
2005-04-07 07:45:36 51°16.476 2°56.96 8.2556 3.229961 30.413982 10.814785
2005-04-07 07:45:42 51°16.487 2°56.987 8.2566 3.231646 30.43083 10.646238
2005-04-07 07:45:46 51°16.495 2°57.008 8.2568 3.221642 30.326554 10.5114
2005-04-07 07:45:50 51°16.504 2°57.03 8.2578 3.229435 30.404902 10.140597
2005-04-07 07:45:55 51°16.513 2°57.054 8.2527 3.224696 30.359098 10.309144
2005-04-07 07:46:02 51°16.524 2°57.086 8.2558 3.214481 30.254805 10.477691
2005-04-07 07:46:06 51°16.531 2°57.11 8.2525 3.214481 30.254805 10.477691
2005-04-07 07:46:11 51°16.54 2°57.134 8.263 3.206689 30.176486 10.005759
2005-04-07 07:46:16 51°16.55 2°57.159 8.2688 3.222801 30.348663 9.668665
2005-04-07 07:46:22 51°16.559 2°57.188 8.256 3.218378 30.303277 10.174306
2005-04-07 07:46:26 51°16.564 2°57.209 8.2505 3.216903 30.290058 9.904631
2005-04-07 07:46:31 51°16.574 2°57.237 8.2433 3.218062 30.303565 9.601247
2005-04-07 07:46:36 51°16.583 2°57.26 8.2443 3.218062 30.303565 9.601247
2005-04-07 07:46:42 51°16.594 2°57.291 8.2501 3.211217 30.234369 9.702375
2005-04-07 07:46:46 51°16.602 2°57.313 8.2486 3.21743 30.296262 9.702375
2005-04-07 07:46:50 51°16.609 2°57.334 8.2576 3.220484 30.323796 9.769794
2005-04-07 07:46:56 51°16.618 2°57.362 8.2597 3.218272 30.302895 10.005759
2005-04-07 07:46:59 51°16.622 2°57.38 8.2481 3.216482 30.289963 9.97205
2005-04-07 07:47:06 51°16.632 2°57.417 8.2422 3.216482 30.289963 9.97205
2005-04-07 07:47:12 51°16.642 2°57.447 8.2385 3.214903 30.277792 10.073178
2005-04-07 07:47:16 51°16.65 2°57.466 8.24 3.217957 30.307481 9.39899
2005-04-07 07:47:21 51°16.659 2°57.494 8.2385 3.220168 30.329821 9.803503
2005-04-07 07:47:26 51°16.67 2°57.518 8.241 3.209743 30.216863 9.567537
2005-04-07 07:47:31 51°16.678 2°57.542 8.2388 3.206057 30.179175 9.803503
2005-04-07 07:47:36 51°16.686 2°57.564 8.2364 3.206057 30.179175 9.803503
2005-04-07 07:47:41 51°16.697 2°57.593 8.2393 3.214271 30.271205 10.106888
2005-04-07 07:47:46 51°16.707 2°57.618 8.2418 3.213534 30.267815 9.297862
2005-04-07 07:47:52 51°16.715 2°57.645 8.2327 3.216904 30.305816 9.837212
2005-04-07 07:47:56 51°16.724 2°57.669 8.2344 3.218799 30.324867 9.4327
2005-04-07 07:48:02 51°16.734 2°57.696 8.2432 3.221326 30.351227 9.702375
2005-04-07 07:48:06 51°16.74 2°57.716 8.2357 3.221326 30.351227 9.702375
2005-04-07 07:48:11 51°16.749 2°57.744 8.2278 3.209532 30.229673 10.039469
2005-04-07 07:48:16 51°16.758 2°57.766 8.2267 3.216588 30.303955 9.601247
2005-04-07 07:48:22 51°16.769 2°57.796 8.2287 3.207216 30.204808 9.769794
2005-04-07 07:48:26 51°16.777 2°57.815 8.2351 3.217746 30.316753 10.376563
2005-04-07 07:48:31 51°16.786 2°57.842 8.2276 3.213218 30.269531 9.837212
2005-04-07 07:48:36 51°16.794 2°57.864 8.2255 3.213218 30.269531 9.837212
2005-04-07 07:48:42 51°16.805 2°57.894 8.2266 3.215535 30.29369 9.736084
2005-04-07 07:48:46 51°16.814 2°57.916 8.2293 3.207637 30.214914 9.668665
2005-04-07 07:48:50 51°16.82 2°57.936 8.2312 3.216904 30.315136 9.668665
2005-04-07 07:48:55 51°16.829 2°57.96 8.2324 3.213323 30.277073 9.533828
2005-04-07 07:49:02 51°16.841 2°57.992 8.2299 3.208164 30.223978 9.870922
2005-04-07 07:49:06 51°16.848 2°58.012 8.2296 3.208164 30.223978 9.870922
2005-04-07 07:49:12 51°16.861 2°58.04 8.236 3.205742 30.200153 9.466409
2005-04-07 07:49:16 51°16.867 2°58.06 8.2296 3.204162 30.185112 9.803503
2005-04-07 07:49:20 51°16.874 2°58.079 8.2235 3.203004 30.172321 10.140597
2005-04-07 07:49:27 51°16.887 2°58.114 8.2262 3.206373 30.206027 9.500118
2005-04-07 07:49:31 51°16.896 2°58.136 8.2248 3.207216 30.214096 10.275435
2005-04-07 07:49:36 51°16.903 2°58.157 8.2247 3.207216 30.214096 10.275435
2005-04-07 07:49:41 51°16.912 2°58.184 8.2246 3.204583 30.186648 9.97205
2005-04-07 07:49:46 51°16.92 2°58.206 8.2258 3.198792 30.124848 10.477691
2005-04-07 07:49:50 51°16.929 2°58.229 8.2263 3.209217 30.234959 9.938341
2005-04-07 07:49:56 51°16.939 2°58.258 8.227 3.208901 30.235241 10.073178
2005-04-07 07:50:01 51°16.946 2°58.282 8.2234 3.204689 30.190602 10.646238
2005-04-07 07:50:06 51°16.954 2°58.308 8.2227 3.204689 30.190602 10.646238
2005-04-07 07:50:12 51°16.965 2°58.336 8.2236 3.21027 30.250234 9.870922
2005-04-07 07:50:16 51°16.971 2°58.356 8.2293 3.204057 30.184728 10.376563
2005-04-07 07:50:21 51°16.98 2°58.383 8.232 3.206689 30.212894 10.241725
2005-04-07 07:50:26 51°16.987 2°58.41 8.2212 3.195633 30.097621 10.275435
2005-04-07 07:50:31 51°16.995 2°58.435 8.2213 3.21048 30.252431 10.309144
2005-04-07 07:50:36 51°17.001 2°58.458 8.2229 3.21048 30.252431 10.309144
2005-04-07 07:50:40 51°17.007 2°58.479 8.2191 3.209848 30.246556 10.140597
2005-04-07 07:50:46 51°17.017 2°58.51 8.2244 3.206163 30.209548 10.443982
2005-04-07 07:50:52 51°17.025 2°58.541 8.2202 3.209954 30.247655 10.410272
2005-04-07 07:50:57 51°17.033 2°58.568 8.2182 3.19479 30.08884 10.106888
2005-04-07 07:51:02 51°17.04 2°58.594 8.2256 3.20848 30.232994 10.106888
2005-04-07 07:51:06 51°17.047 2°58.618 8.2252 3.20848 30.232994 10.106888
2005-04-07 07:51:11 51°17.053 2°58.646 8.2199 3.203214 30.180229 10.646238
2005-04-07 07:51:16 51°17.06 2°58.671 8.2244 3.205952 30.209496 10.275435
2005-04-07 07:51:20 51°17.067 2°58.691 8.2365 3.191105 30.053986 10.241725
2005-04-07 07:51:26 51°17.076 2°58.725 8.2257 3.198581 30.131206 10.5114
2005-04-07 07:51:32 51°17.083 2°58.754 8.2243 3.199739 30.144708 10.376563
2005-04-07 07:51:36 51°17.089 2°58.775 8.2279 3.199739 30.144708 10.376563
2005-04-07 07:51:42 51°17.097 2°58.808 8.226 3.202161 30.167821 10.241725
2005-04-07 07:51:46 51°17.104 2°58.832 8.2215 3.201635 30.164472 10.477691
2005-04-07 07:51:52 51°17.112 2°58.862 8.2195 3.197844 30.122808 10.140597
2005-04-07 07:51:56 51°17.118 2°58.883 8.2283 3.200266 30.145205 10.241725
2005-04-07 07:52:01 51°17.126 2°58.911 8.2196 3.198371 30.126159 10.073178
2005-04-07 07:52:06 51°17.132 2°58.935 8.2175 3.198371 30.126159 10.073178
2005-04-07 07:52:12 51°17.142 2°58.969 8.2157 3.193211 30.071667 10.106888
2005-04-07 07:52:16 51°17.15 2°58.993 8.2149 3.197739 30.116723 10.275435
2005-04-07 07:52:22 51°17.158 2°59.02 8.2192 3.177205 29.904926 10.376563
2005-04-07 07:52:26 51°17.165 2°59.043 8.2145 3.178469 29.920208 10.275435
2005-04-07 07:52:31 51°17.173 2°59.07 8.2153 3.194369 30.085162 10.477691
2005-04-07 07:52:36 51°17.181 2°59.093 8.2148 3.194369 30.085162 10.477691
2005-04-07 07:52:41 51°17.191 2°59.121 8.2144 3.196265 30.107767 10.477691
2005-04-07 07:52:46 51°17.199 2°59.146 8.2148 3.191737 30.063416 10.747366
2005-04-07 07:52:50 51°17.206 2°59.166 8.2146 3.185524 29.998668 10.713657
2005-04-07 07:52:55 51°17.215 2°59.192 8.2113 3.194896 30.095634 10.983332
2005-04-07 07:53:02 51°17.228 2°59.224 8.2155 3.177416 29.917027 10.882204
2005-04-07 07:53:07 51°17.237 2°59.25 8.211 3.177416 29.917027 10.882204
2005-04-07 07:53:11 51°17.244 2°59.271 8.2182 3.18763 30.022745 11.320426
2005-04-07 07:53:16 51°17.253 2°59.295 8.2253 3.18942 30.042825 10.848494
2005-04-07 07:53:22 51°17.261 2°59.326 8.2103 3.190789 30.057805 11.421554
2005-04-07 07:53:26 51°17.269 2°59.349 8.2075 3.193737 30.088543 10.814785
2005-04-07 07:53:31 51°17.279 2°59.373 8.2152 3.184998 29.998151 13.073315
2005-04-07 07:53:36 51°17.286 2°59.396 8.2046 3.184998 29.998151 13.073315
2005-04-07 07:53:41 51°17.297 2°59.423 8.2039 3.195317 30.105724 13.107024
2005-04-07 07:53:46 51°17.306 2°59.445 8.2041 3.177732 29.921026 13.208153
2005-04-07 07:53:51 51°17.317 2°59.471 8.2024 3.196896 30.11863 13.208153
2005-04-07 07:53:56 51°17.325 2°59.492 8.2002 3.192369 30.075695 13.275571
2005-04-07 07:54:00 51°17.334 2°59.511 8.1997 3.194264 30.096169 13.3767
2005-04-07 07:54:06 51°17.347 2°59.541 8.1978 3.194264 30.096169 13.3767
2005-04-07 07:54:12 51°17.359 2°59.567 8.1998 3.19816 30.139651 13.3767
2005-04-07 07:54:16 51°17.37 2°59.589 8.2014 3.195212 30.11104 13.612665
2005-04-07 07:54:21 51°17.38 2°59.612 8.1897 3.197423 30.134817 13.444118
2005-04-07 07:54:26 51°17.391 2°59.634 8.1839 3.190894 30.068154 13.578956
2005-04-07 07:54:31 51°17.403 2°59.657 8.1845 3.179733 29.953211 13.545247
2005-04-07 07:54:36 51°17.414 2°59.676 8.1878 3.179733 29.953211 13.545247
2005-04-07 07:54:41 51°17.425 2°59.701 8.175 3.190894 30.071002 13.680084
2005-04-07 07:54:46 51°17.437 2°59.724 8.1749 3.199319 30.161014 13.578956
2005-04-07 07:54:51 51°17.451 2°59.745 8.1791 3.185419 30.015327 13.578956
2005-04-07 07:54:56 51°17.462 2°59.763 8.1746 3.18584 30.025407 13.545247
2005-04-07 07:55:02 51°17.476 2°59.787 8.1662 3.195844 30.13261 13.410409
2005-04-07 07:55:06 51°17.487 2°59.805 8.1696 3.195844 30.13261 13.410409
2005-04-07 07:55:10 51°17.498 2°59.824 8.1635 3.179522 29.963786 13.545247
2005-04-07 07:55:16 51°17.513 2°59.85 8.1593 3.186788 30.044541 13.3767
2005-04-07 07:55:22 51°17.525 2°59.873 8.1563 3.186893 30.047775 13.309281
2005-04-07 07:55:26 51°17.533 2°59.89 8.1494 3.197107 30.152224 13.410409
2005-04-07 07:55:31 51°17.546 2°59.915 8.1415 3.191211 30.094962 13.309281
2005-04-07 07:55:36 51°17.557 2°59.936 8.134 3.191211 30.094962 13.309281
2005-04-07 07:55:42 51°17.573 2°59.962 8.1489 3.187209 30.056056 13.275571
2005-04-07 07:55:46 51°17.584 2°59.976 8.1753 3.182787 30.013466 13.140734
2005-04-07 07:55:51 51°17.594 2°59.999 8.1427 3.172046 29.90497 13.34299
2005-04-07 07:55:56 51°17.606 3°0.022 8.1327 3.181313 30.005908 13.005896
2005-04-07 07:56:02 51°17.62 3°0.045 8.1322 3.176995 29.96654 13.309281
2005-04-07 07:56:06 51°17.63 3°0.062 8.1302 3.176995 29.96654 13.309281
2005-04-07 07:56:11 51°17.644 3°0.085 8.1378 3.176996 29.972936 13.34299
2005-04-07 07:56:15 51°17.655 3°0.102 8.1453 3.180049 30.004814 13.34299
2005-04-07 07:56:22 51°17.67 3°0.129 8.1494 3.163833 29.829219 13.511537
2005-04-07 07:56:26 51°17.678 3°0.148 8.1414 3.179523 29.997894 13.646375
2005-04-07 07:56:32 51°17.693 3°0.174 8.1559 3.172047 29.927671 13.713794
2005-04-07 07:56:36 51°17.701 3°0.191 8.1511 3.172047 29.927671 13.713794
2005-04-07 07:56:42 51°17.714 3°0.22 8.1364 3.168361 29.89275 13.848631
2005-04-07 07:56:46 51°17.725 3°0.237 8.1432 3.162044 29.825401 13.781212
2005-04-07 07:56:52 51°17.739 3°0.26 8.1844 3.173521 29.940928 13.713794
2005-04-07 07:56:56 51°17.746 3°0.278 8.142 3.172573 29.928906 13.747503
2005-04-07 07:57:01 51°17.759 3°0.303 8.1474 3.171731 29.918695 13.477828
2005-04-07 07:57:06 51°17.77 3°0.326 8.1483 3.171731 29.918695 13.477828
2005-04-07 07:57:11 51°17.78 3°0.348 8.1491 3.173415 29.931309 13.545247
2005-04-07 07:57:16 51°17.789 3°0.367 8.149 3.169625 29.898137 13.612665
2005-04-07 07:57:22 51°17.8 3°0.392 8.149 3.170994 29.908166 13.477828
2005-04-07 07:57:26 51°17.81 3°0.407 8.1503 3.173731 29.929637 13.410409
2005-04-07 07:57:31 51°17.82 3°0.425 8.1488 3.158253 29.773845 13.309281
2005-04-07 07:57:36 51°17.831 3°0.438 8.1543 3.158253 29.773845 13.309281
2005-04-07 07:57:40 51°17.836 3°0.45 8.1548 3.153515 29.723734 13.34299
2005-04-07 07:57:46 51°17.849 3°0.467 8.1648 3.166782 29.862095 13.241862
2005-04-07 07:57:51 51°17.856 3°0.484 8.1684 3.153515 29.723734 13.3767
2005-04-07 07:57:56 51°17.862 3°0.497 8.1726 3.157516 29.766159 13.3767
2005-04-07 07:58:02 51°17.868 3°0.517 8.1777 3.149092 29.679041 13.511537
2005-04-07 07:58:06 51°17.874 3°0.532 8.1682 3.149092 29.679041 13.511537
2005-04-07 07:58:11 51°17.877 3°0.547 8.166 3.161728 29.809376 13.477828
2005-04-07 07:58:15 51°17.88 3°0.562 8.1664 3.148355 29.667841 13.511537
2005-04-07 07:58:22 51°17.884 3°0.585 8.1633 3.162149 29.808821 13.477828
2005-04-07 07:58:26 51°17.887 3°0.598 8.171 3.161622 29.796973 13.444118
2005-04-07 07:58:32 51°17.889 3°0.615 8.1714 3.159937 29.774469 13.477828
2005-04-07 07:58:36 51°17.891 3°0.626 8.1768 3.159937 29.774469 13.477828
2005-04-07 07:58:41 51°17.891 3°0.64 8.1748 3.151198 29.68199 13.34299
2005-04-07 07:58:46 51°17.891 3°0.651 8.1779 3.156041 29.733162 13.34299
2005-04-07 07:58:51 51°17.891 3°0.663 8.1715 3.151724 29.690289 13.309281
2005-04-07 07:58:56 51°17.89 3°0.672 8.1694 3.145828 29.62886 13.34299
2005-04-07 07:59:02 51°17.889 3°0.682 8.1729 3.150882 29.680106 13.309281
2005-04-07 07:59:06 51°17.888 3°0.689 8.1869 3.150882 29.680106 13.309281
2005-04-07 07:59:10 51°17.886 3°0.694 8.1772 3.143617 29.602321 13.275571
2005-04-07 07:59:16 51°17.884 3°0.701 8.1787 3.15541 29.724465 13.309281
2005-04-07 07:59:21 51°17.883 3°0.705 8.1868 3.153409 29.702916 13.241862
2005-04-07 07:59:26 51°17.882 3°0.709 8.2166 3.146881 29.634912 13.174443
2005-04-07 07:59:31 51°17.88 3°0.714 8.2128 3.152356 29.69265 13.241862
2005-04-07 07:59:36 51°17.879 3°0.716 8.1763 3.152356 29.69265 13.241862
2005-04-07 07:59:41 51°17.878 3°0.72 8.1767 3.142985 29.592236 13.3767
2005-04-07 07:59:46 51°17.876 3°0.724 8.1866 3.147513 29.637981 13.275571
2005-04-07 07:59:51 51°17.875 3°0.727 8.1882 3.146249 29.621314 13.34299
2005-04-07 07:59:56 51°17.873 3°0.729 8.182 3.155094 29.707096 13.444118
2005-04-07 08:00:01 51°17.872 3°0.733 8.1768 3.147407 29.618641 13.174443
2005-04-07 08:00:06 51°17.87 3°0.736 8.1776 3.147407 29.618641 13.174443
2005-04-07 08:00:11 51°17.868 3°0.739 8.1762 3.153619 29.686822 13.241862
2005-04-07 08:00:16 51°17.867 3°0.742 8.1896 3.152251 29.680301 13.174443
2005-04-07 08:00:22 51°17.865 3°0.745 8.1833 3.15004 29.658679 13.140734
2005-04-07 08:00:26 51°17.863 3°0.748 8.1809 3.15383 29.698157 13.140734
2005-04-07 08:00:32 51°17.862 3°0.752 8.2122 3.141511 29.571983 13.309281
2005-04-07 08:00:36 51°17.859 3°0.753 8.1822 3.141511 29.571983 13.309281
2005-04-07 08:00:41 51°17.857 3°0.757 8.1845 3.141827 29.577373 13.208153
2005-04-07 08:00:46 51°17.854 3°0.76 8.1776 3.148987 29.649822 13.208153
2005-04-07 08:00:52 51°17.852 3°0.763 8.1763 3.142143 29.576458 13.140734
2005-04-07 08:00:56 51°17.85 3°0.765 8.1772 3.15183 29.676618 13.174443
2005-04-07 08:01:00 51°17.848 3°0.767 8.1749 3.152145 29.677799 13.107024
2005-04-07 08:01:06 51°17.845 3°0.771 8.1732 3.152145 29.677799 13.107024
2005-04-07 08:01:11 51°17.842 3°0.773 8.1757 3.142037 29.570459 13.073315
2005-04-07 08:01:16 51°17.84 3°0.776 8.1714 3.143511 29.588605 13.174443
2005-04-07 08:01:22 51°17.838 3°0.779 8.1848 3.149408 29.652803 13.107024
2005-04-07 08:01:26 51°17.835 3°0.781 8.1706 3.153198 29.696501 13.107024
2005-04-07 08:01:31 51°17.832 3°0.783 8.1651 3.157094 29.736383 13.174443
2005-04-07 08:01:36 51°17.83 3°0.786 8.1672 3.157094 29.736383 13.174443
2005-04-07 08:01:41 51°17.827 3°0.789 8.1753 3.158358 29.750957 13.039606
2005-04-07 08:01:46 51°17.824 3°0.79 8.1659 3.151724 29.682552 13.005896
2005-04-07 08:01:51 51°17.821 3°0.793 8.1639 3.157937 29.747978 13.039606
2005-04-07 08:01:56 51°17.818 3°0.795 8.1651 3.152988 29.69501 12.938477
2005-04-07 08:02:02 51°17.814 3°0.798 8.1663 3.151935 29.684745 12.938477
2005-04-07 08:02:06 51°17.811 3°0.798 8.1633 3.151935 29.684745 12.938477
2005-04-07 08:02:11 51°17.808 3°0.8 8.1664 3.156568 29.736534 13.039606
2005-04-07 08:02:16 51°17.805 3°0.8 8.1609 3.162359 29.798301 13.005896
2005-04-07 08:02:22 51°17.802 3°0.802 8.1579 3.147934 29.650094 12.972187
2005-04-07 08:02:26 51°17.799 3°0.804 8.1605 3.158147 29.755813 13.005896
2005-04-07 08:02:31 51°17.796 3°0.805 8.1655 3.147723 29.647198 12.938477
2005-04-07 08:02:36 51°17.794 3°0.806 8.1644 3.147723 29.647198 12.938477
2005-04-07 08:02:42 51°17.79 3°0.807 8.162 3.150145 29.671724 13.039606
2005-04-07 08:02:46 51°17.788 3°0.809 8.1734 3.16436 29.821982 12.972187
2005-04-07 08:02:51 51°17.785 3°0.81 8.1585 3.151093 29.685817 12.972187
2005-04-07 08:02:56 51°17.782 3°0.81 8.1568 3.158463 29.762632 12.871059
2005-04-07 08:03:02 51°17.779 3°0.811 8.1585 3.156252 29.739585 12.904768
2005-04-07 08:03:06 51°17.776 3°0.812 8.1592 3.156252 29.739585 12.904768
2005-04-07 08:03:12 51°17.773 3°0.813 8.1608 3.148144 29.652991 12.972187
2005-04-07 08:03:16 51°17.77 3°0.813 8.1614 3.161833 29.794931 12.938477
2005-04-07 08:03:22 51°17.767 3°0.812 8.168 3.166255 29.840329 13.073315
2005-04-07 08:03:26 51°17.765 3°0.813 8.1648 3.159622 29.773999 13.140734
2005-04-07 08:03:32 51°17.761 3°0.813 8.165 3.164781 29.831322 12.871059
2005-04-07 08:03:36 51°17.76 3°0.812 8.1684 3.164781 29.831322 12.871059
2005-04-07 08:03:41 51°17.757 3°0.811 8.1646 3.165518 29.838301 12.938477
2005-04-07 08:03:46 51°17.754 3°0.81 8.1613 3.164465 29.826615 13.005896
2005-04-07 08:03:52 51°17.751 3°0.809 8.1587 3.157621 29.753852 13.005896
2005-04-07 08:03:56 51°17.749 3°0.808 8.1657 3.165202 29.831472 13.208153
2005-04-07 08:04:02 51°17.746 3°0.806 8.1575 3.164676 29.826689 13.107024
2005-04-07 08:04:06 51°17.743 3°0.804 8.1572 3.164676 29.826689 13.107024
2005-04-07 08:04:10 51°17.741 3°0.804 8.1599 3.167413 29.855943 13.107024
2005-04-07 08:04:15 51°17.739 3°0.802 8.1588 3.169098 29.873512 13.174443
2005-04-07 08:04:21 51°17.736 3°0.8 8.1577 3.16794 29.863556 13.107024
2005-04-07 08:04:26 51°17.734 3°0.798 8.1624 3.162149 29.804581 13.140734
2005-04-07 08:04:31 51°17.732 3°0.796 8.1608 3.165729 29.841912 13.174443
2005-04-07 08:04:35 51°17.73 3°0.794 8.1579 3.165729 29.841912 13.174443
2005-04-07 08:04:42 51°17.728 3°0.792 8.1596 3.168361 29.870781 13.241862
2005-04-07 08:04:46 51°17.726 3°0.79 8.1653 3.167413 29.859482 13.3767
2005-04-07 08:04:51 51°17.725 3°0.788 8.1685 3.156779 29.747892 13.241862
2005-04-07 08:04:56 51°17.723 3°0.786 8.1639 3.165623 29.841521 13.34299
2005-04-07 08:05:02 51°17.722 3°0.783 8.1709 3.167203 29.857285 13.275571
2005-04-07 08:05:06 51°17.721 3°0.782 8.1765 3.167203 29.857285 13.275571
2005-04-07 08:05:11 51°17.719 3°0.779 8.1621 3.165834 29.843717 13.241862
2005-04-07 08:05:16 51°17.719 3°0.777 8.1597 3.168572 29.87227 13.208153
2005-04-07 08:05:22 51°17.718 3°0.774 8.1578 3.167624 29.861678 13.3767
2005-04-07 08:05:26 51°17.717 3°0.772 8.1609 3.170362 29.888106 13.477828
2005-04-07 08:05:32 51°17.717 3°0.77 8.1642 3.162991 29.811951 13.3767
2005-04-07 08:05:36 51°17.717 3°0.768 8.1596 3.162991 29.811951 13.3767
2005-04-07 08:05:42 51°17.717 3°0.766 8.1611 3.167519 29.856333 13.275571
2005-04-07 08:05:46 51°17.718 3°0.764 8.1652 3.165518 29.837594 13.34299
2005-04-07 08:05:51 51°17.719 3°0.762 8.1613 3.170572 29.89172 13.34299
2005-04-07 08:05:56 51°17.72 3°0.76 8.1603 3.159727 29.77792 13.275571
2005-04-07 08:06:02 51°17.722 3°0.757 8.1634 3.168572 29.870853 13.275571
2005-04-07 08:06:06 51°17.723 3°0.756 8.16 3.168572 29.870853 13.275571
2005-04-07 08:06:12 51°17.725 3°0.755 8.1639 3.168256 29.868267 13.410409
2005-04-07 08:06:16 51°17.727 3°0.755 8.1695 3.161622 29.801211 13.241862
2005-04-07 08:06:22 51°17.729 3°0.754 8.1648 3.164149 29.828977 13.34299
2005-04-07 08:06:26 51°17.731 3°0.754 8.1677 3.16636 29.849916 13.309281
2005-04-07 08:06:32 51°17.734 3°0.753 8.1614 3.160043 29.786155 13.241862
2005-04-07 08:06:36 51°17.736 3°0.753 8.1609 3.160043 29.786155 13.241862
2005-04-07 08:06:42 51°17.74 3°0.752 8.1639 3.167729 29.867024 13.34299
2005-04-07 08:06:46 51°17.742 3°0.751 8.1588 3.165518 29.842545 13.275571
2005-04-07 08:06:51 51°17.745 3°0.752 8.1616 3.162043 29.803483 13.275571
2005-04-07 08:06:56 51°17.747 3°0.752 8.1681 3.167519 29.859872 13.34299
2005-04-07 08:07:02 51°17.749 3°0.752 8.1766 3.158569 29.768668 13.309281
2005-04-07 08:07:06 51°17.751 3°0.752 8.168 3.158569 29.768668 13.309281
2005-04-07 08:07:11 51°17.753 3°0.752 8.1657 3.16078 29.792428 13.3767
2005-04-07 08:07:15 51°17.755 3°0.752 8.1725 3.168888 29.877689 13.34299
2005-04-07 08:07:22 51°17.757 3°0.752 8.1665 3.158042 29.766002 13.309281
2005-04-07 08:07:26 51°17.759 3°0.753 8.1613 3.165202 29.836422 13.34299
2005-04-07 08:07:31 51°17.76 3°0.754 8.16 3.155831 29.740834 13.34299
2005-04-07 08:07:36 51°17.762 3°0.754 8.1624 3.155831 29.740834 13.34299
2005-04-07 08:07:42 51°17.763 3°0.755 8.1652 3.167624 29.862386 13.3767
2005-04-07 08:07:46 51°17.765 3°0.756 8.1588 3.16815 29.867877 13.241862
2005-04-07 08:07:51 51°17.766 3°0.757 8.1611 3.16794 29.86568 13.275571
2005-04-07 08:07:56 51°17.768 3°0.758 8.1617 3.166782 29.8536 13.275571
2005-04-07 08:08:02 51°17.769 3°0.759 8.1703 3.166782 29.855016 13.241862
2005-04-07 08:08:06 51°17.771 3°0.76 8.1689 3.166782 29.855016 13.241862
2005-04-07 08:08:11 51°17.772 3°0.761 8.1635 3.169309 29.882082 13.174443
2005-04-07 08:08:16 51°17.773 3°0.762 8.1672 3.158674 29.771177 13.241862
2005-04-07 08:08:20 51°17.774 3°0.763 8.1696 3.168361 29.873614 13.208153
2005-04-07 08:08:26 51°17.776 3°0.765 8.1723 3.162043 29.805603 13.241862
2005-04-07 08:08:32 51°17.777 3°0.766 8.169 3.164465 29.831564 13.241862
2005-04-07 08:08:35 51°17.778 3°0.767 8.1677 3.164465 29.831564 13.241862
2005-04-07 08:08:41 51°17.779 3°0.768 8.1676 3.158463 29.766159 13.275571
2005-04-07 08:08:46 51°17.78 3°0.769 8.1698 3.165518 29.839716 13.241862
2005-04-07 08:08:51 51°17.781 3°0.77 8.169 3.165413 29.839325 13.275571
2005-04-07 08:08:56 51°17.782 3°0.771 8.175 3.162465 29.808581 13.275571
2005-04-07 08:09:02 51°17.784 3°0.773 8.1684 3.1572 29.752988 13.309281
2005-04-07 08:09:06 51°17.785 3°0.774 8.1704 3.1572 29.752988 13.309281
2005-04-07 08:09:11 51°17.786 3°0.775 8.1682 3.159727 29.779332 13.107024
2005-04-07 08:09:16 51°17.787 3°0.777 8.1712 3.157621 29.757378 13.140734
2005-04-07 08:09:22 51°17.788 3°0.778 8.175 3.168993 29.875246 13.073315
2005-04-07 08:09:26 51°17.789 3°0.78 8.1728 3.170256 29.888425 12.972187
2005-04-07 08:09:31 51°17.79 3°0.781 8.1748 3.164676 29.829517 13.073315
2005-04-07 08:09:36 51°17.79 3°0.783 8.1815 3.164676 29.829517 13.073315
2005-04-07 08:09:42 51°17.792 3°0.785 8.1742 3.168782 29.872342 12.871059
2005-04-07 08:09:46 51°17.793 3°0.786 8.1717 3.161727 29.798777 13.039606
2005-04-07 08:09:51 51°17.794 3°0.788 8.1739 3.167729 29.860652 12.837349
2005-04-07 08:09:56 51°17.794 3°0.789 8.1721 3.161201 29.791876 12.837349
2005-04-07 08:10:02 51°17.796 3°0.792 8.1762 3.16636 29.844256 12.871059
2005-04-07 08:10:06 51°17.796 3°0.793 8.1819 3.16636 29.844256 12.871059
2005-04-07 08:10:11 51°17.797 3°0.794 8.1837 3.166676 29.846135 12.80364
2005-04-07 08:10:16 51°17.798 3°0.796 8.1734 3.162675 29.807244 12.837349
2005-04-07 08:10:22 51°17.799 3°0.799 8.172 3.155726 29.734802 12.80364
2005-04-07 08:10:26 51°17.799 3°0.8 8.1664 3.156779 29.745072 12.837349
2005-04-07 08:10:32 51°17.8 3°0.802 8.1685 3.160674 29.784269 12.668802
2005-04-07 08:10:36 51°17.801 3°0.803 8.1679 3.160674 29.784269 12.668802
2005-04-07 08:10:42 51°17.802 3°0.805 8.1649 3.162886 29.80732 12.668802
2005-04-07 08:10:46 51°17.802 3°0.807 8.1674 3.163096 29.808103 12.567674
2005-04-07 08:10:52 51°17.803 3°0.809 8.1668 3.156252 29.736765 12.635093
2005-04-07 08:10:56 51°17.803 3°0.811 8.1641 3.160253 29.780585 12.736221
2005-04-07 08:11:02 51°17.804 3°0.813 8.1692 3.164992 29.829983 12.80364
2005-04-07 08:11:06 51°17.805 3°0.815 8.1696 3.164992 29.829983 12.80364
2005-04-07 08:11:12 51°17.805 3°0.817 8.1628 3.164886 29.831006 12.736221
2005-04-07 08:11:16 51°17.806 3°0.818 8.1642 3.164676 29.830932 12.972187
2005-04-07 08:11:21 51°17.807 3°0.821 8.1665 3.163412 29.817049 13.005896
2005-04-07 08:11:26 51°17.808 3°0.823 8.1618 3.160359 29.78733 13.174443
2005-04-07 08:11:32 51°17.808 3°0.825 8.167 3.16099 29.793211 13.140734
2005-04-07 08:11:36 51°17.809 3°0.827 8.163 3.16099 29.793211 13.140734
2005-04-07 08:11:42 51°17.81 3°0.831 8.1563 3.15541 29.735034 13.140734
2005-04-07 08:11:46 51°17.811 3°0.835 8.1595 3.152672 29.7065 13.241862
2005-04-07 08:11:51 51°17.811 3°0.835 8.1584 3.164044 29.827879 13.174443
2005-04-07 08:11:55 51°17.811 3°0.839 8.166 3.158042 29.766002 13.208153
2005-04-07 08:12:01 51°17.812 3°0.84 8.1602 3.16257 29.811799 13.208153
2005-04-07 08:12:06 51°17.813 3°0.844 8.1703 3.16257 29.811799 13.208153
2005-04-07 08:12:11 51°17.813 3°0.846 8.1672 3.166255 29.849525 13.107024
2005-04-07 08:12:16 51°17.813 3°0.848 8.1567 3.160359 29.788037 13.174443
2005-04-07 08:12:22 51°17.814 3°0.851 8.1599 3.156147 29.744127 13.107024
2005-04-07 08:12:26 51°17.815 3°0.853 8.1577 3.155831 29.743654 13.073315
2005-04-07 08:12:32 51°17.815 3°0.855 8.161 3.161728 29.806549 13.107024
2005-04-07 08:12:36 51°17.816 3°0.858 8.1549 3.161728 29.806549 13.107024
2005-04-07 08:12:42 51°17.816 3°0.861 8.1543 3.159516 29.782784 12.972187
2005-04-07 08:12:46 51°17.816 3°0.863 8.1538 3.165202 29.839958 12.80364
2005-04-07 08:12:51 51°17.817 3°0.864 8.16 3.165518 29.843961 12.871059
2005-04-07 08:12:56 51°17.818 3°0.868 8.159 3.160464 29.793372 12.972187
2005-04-07 08:13:02 51°17.818 3°0.87 8.1566 3.152462 29.711348 12.904768
2005-04-07 08:13:06 51°17.818 3°0.872 8.1536 3.152462 29.711348 12.904768
2005-04-07 08:13:12 51°17.819 3°0.875 8.1551 3.15741 29.762943 12.871059
2005-04-07 08:13:16 51°17.819 3°0.876 8.1574 3.163623 29.82773 12.938477
2005-04-07 08:13:22 51°17.819 3°0.879 8.1549 3.15362 29.724127 13.005896
2005-04-07 08:13:26 51°17.82 3°0.882 8.1576 3.163623 29.828437 12.938477
2005-04-07 08:13:31 51°17.82 3°0.884 8.1566 3.164149 29.833928 12.938477
2005-04-07 08:13:36 51°17.82 3°0.887 8.1562 3.164149 29.833928 12.938477
2005-04-07 08:13:42 51°17.821 3°0.89 8.1611 3.152462 29.712052 12.76993
2005-04-07 08:13:46 51°17.821 3°0.891 8.1617 3.159938 29.79212 12.871059
2005-04-07 08:13:51 51°17.821 3°0.896 8.161 3.15541 29.744905 12.837349
2005-04-07 08:13:56 51°17.821 3°0.9 8.1627 3.150882 29.695588 12.76993
2005-04-07 08:14:02 51°17.822 3°0.902 8.1557 3.147092 29.656782 12.702512
2005-04-07 08:14:06 51°17.822 3°0.904 8.1561 3.147092 29.656782 12.702512
2005-04-07 08:14:12 51°17.822 3°0.906 8.158 3.161306 29.806397 12.76993
2005-04-07 08:14:16 51°17.822 3°0.909 8.1556 3.15004 29.686104 12.76993
2005-04-07 08:14:22 51°17.822 3°0.911 8.1577 3.157516 29.76263 12.736221
2005-04-07 08:14:26 51°17.822 3°0.912 8.1566 3.148882 29.672624 12.837349
2005-04-07 08:14:31 51°17.822 3°0.915 8.1607 3.162359 29.813137 12.76993
2005-04-07 08:14:36 51°17.822 3°0.917 8.1626 3.162359 29.813137 12.76993
2005-04-07 08:14:41 51°17.823 3°0.919 8.1712 3.161096 29.80208 12.601383
2005-04-07 08:14:46 51°17.823 3°0.922 8.1648 3.157832 29.770865 12.76993
2005-04-07 08:14:52 51°17.823 3°0.925 8.1586 3.152567 29.715264 12.702512
2005-04-07 08:14:56 51°17.824 3°0.926 8.1578 3.152041 29.709071 12.736221
2005-04-07 08:15:02 51°17.824 3°0.929 8.162 3.146039 29.646511 12.76993
2005-04-07 08:15:06 51°17.825 3°0.932 8.1538 3.146039 29.646511 12.76993
2005-04-07 08:15:12 51°17.825 3°0.935 8.1541 3.156779 29.758473 12.736221
2005-04-07 08:15:16 51°17.825 3°0.935 8.157 3.146144 29.643391 12.904768
2005-04-07 08:15:21 51°17.826 3°0.939 8.1551 3.14646 29.646682 12.702512
2005-04-07 08:15:26 51°17.826 3°0.941 8.1548 3.16099 29.798862 12.736221
2005-04-07 08:15:32 51°17.826 3°0.944 8.1581 3.156884 29.756748 12.702512
2005-04-07 08:15:36 51°17.826 3°0.945 8.1617 3.156884 29.756748 12.702512
2005-04-07 08:15:41 51°17.827 3°0.948 8.1574 3.158463 29.774629 12.635093
2005-04-07 08:15:46 51°17.828 3°0.951 8.1622 3.152356 29.712364 12.736221
2005-04-07 08:15:50 51°17.828 3°0.953 8.1619 3.158358 29.775649 12.76993
2005-04-07 08:15:57 51°17.828 3°0.956 8.1622 3.148355 29.669247 12.76993
2005-04-07 08:16:01 51°17.829 3°0.959 8.1656 3.151935 29.708677 12.668802
2005-04-07 08:16:06 51°17.829 3°0.961 8.1561 3.151935 29.708677 12.668802
2005-04-07 08:16:11 51°17.829 3°0.963 8.156 3.160569 29.798003 12.80364
2005-04-07 08:16:16 51°17.83 3°0.965 8.1604 3.148566 29.674257 12.635093
2005-04-07 08:16:21 51°17.83 3°0.968 8.1595 3.156042 29.751493 12.601383
2005-04-07 08:16:27 51°17.831 3°0.971 8.16 3.159411 29.785217 12.635093
2005-04-07 08:16:31 51°17.831 3°0.972 8.1644 3.155515 29.743887 12.466546
2005-04-07 08:16:35 51°17.831 3°0.974 8.1625 3.155515 29.743887 12.466546
2005-04-07 08:16:42 51°17.832 3°0.977 8.1634 3.16278 29.818237 12.23058
2005-04-07 08:16:46 51°17.832 3°0.979 8.1561 3.160569 29.795883 12.129452
2005-04-07 08:16:52 51°17.832 3°0.982 8.156 3.147618 29.662269 12.062033
2005-04-07 08:16:56 51°17.833 3°0.983 8.157 3.148566 29.672146 12.028324
2005-04-07 08:17:00 51°17.833 3°0.985 8.1591 3.153515 29.722325 11.994614
2005-04-07 08:17:06 51°17.833 3°0.988 8.1558 3.153515 29.722325 11.994614
2005-04-07 08:17:12 51°17.834 3°0.991 8.1592 3.161517 29.805766 11.994614
2005-04-07 08:17:16 51°17.834 3°0.993 8.1573 3.155936 29.748984 11.927195
2005-04-07 08:17:21 51°17.835 3°0.995 8.1579 3.154778 29.736203 11.792358
2005-04-07 08:17:26 51°17.835 3°0.997 8.1559 3.156252 29.752983 11.994614
2005-04-07 08:17:32 51°17.836 3°1 8.1607 3.162359 29.816672 11.927195
2005-04-07 08:17:36 51°17.836 3°1.002 8.162 3.162359 29.816672 11.927195
2005-04-07 08:17:42 51°17.836 3°1.004 8.1616 3.158779 29.780747 11.826067
2005-04-07 08:17:46 51°17.837 3°1.006 8.1589 3.148145 29.669163 11.927195
2005-04-07 08:17:50 51°17.837 3°1.008 8.1697 3.158253 29.775257 11.927195
2005-04-07 08:17:57 51°17.838 3°1.01 8.1659 3.154357 29.733927 11.826067
2005-04-07 08:18:01 51°17.839 3°1.013 8.1663 3.150145 29.689313 11.724939
2005-04-07 08:18:06 51°17.839 3°1.016 8.1646 3.150145 29.689313 11.724939
2005-04-07 08:18:11 51°17.84 3°1.017 8.1616 3.15562 29.74569 11.758648
2005-04-07 08:18:17 51°17.84 3°1.02 8.1603 3.15541 29.743495 11.65752
2005-04-07 08:18:22 51°17.841 3°1.023 8.1641 3.150988 29.698094 11.590101
2005-04-07 08:18:26 51°17.841 3°1.023 8.1666 3.144249 29.624344 11.488973
2005-04-07 08:18:32 51°17.842 3°1.025 8.1685 3.149303 29.677014 11.488973
2005-04-07 08:18:36 51°17.843 3°1.029 8.1685 3.149303 29.677014 11.488973
2005-04-07 08:18:42 51°17.843 3°1.031 8.1709 3.156463 29.750241 11.286717
2005-04-07 08:18:46 51°17.844 3°1.033 8.1651 3.156989 29.757141 11.219298
2005-04-07 08:18:51 51°17.844 3°1.035 8.1703 3.157726 29.76412 11.08446
2005-04-07 08:18:57 51°17.845 3°1.037 8.1703 3.145828 29.639396 11.08446
2005-04-07 08:19:02 51°17.845 3°1.039 8.1796 3.159727 29.782862 11.11817
2005-04-07 08:19:07 51°17.846 3°1.042 8.1743 3.159727 29.782862 11.11817
2005-04-07 08:19:12 51°17.847 3°1.044 8.1719 3.161096 29.795722 11.017042
2005-04-07 08:19:17 51°17.847 3°1.046 8.1736 3.145407 29.630793 11.017042
2005-04-07 08:19:22 51°17.848 3°1.049 8.1779 3.147197 29.649443 10.983332
2005-04-07 08:19:26 51°17.848 3°1.05 8.1782 3.152672 29.705091 10.882204
2005-04-07 08:19:32 51°17.849 3°1.053 8.1746 3.152462 29.702897 10.983332
2005-04-07 08:19:36 51°17.85 3°1.054 8.1777 3.152462 29.702897 10.983332
2005-04-07 08:19:41 51°17.85 3°1.057 8.1789 3.1592 29.773137 10.915913
2005-04-07 08:19:46 51°17.851 3°1.06 8.1815 3.155515 29.734722 10.747366
2005-04-07 08:19:52 51°17.851 3°1.062 8.1787 3.159727 29.77792 10.814785
2005-04-07 08:19:56 51°17.852 3°1.064 8.1791 3.160674 29.786387 10.713657
2005-04-07 08:20:01 51°17.852 3°1.066 8.1772 3.158779 29.765924 10.679947
2005-04-07 08:20:06 51°17.853 3°1.068 8.1813 3.158779 29.765924 10.679947
2005-04-07 08:20:12 51°17.853 3°1.07 8.1797 3.153725 29.71184 10.612529
2005-04-07 08:20:16 51°17.854 3°1.071 8.1833 3.157621 29.752441 10.578819
2005-04-07 08:20:22 51°17.854 3°1.073 8.1794 3.158569 29.761613 10.54511
2005-04-07 08:20:26 51°17.855 3°1.076 8.1784 3.154778 29.719995 10.443982
2005-04-07 08:20:32 51°17.855 3°1.078 8.1782 3.157726 29.750718 10.376563
2005-04-07 08:20:36 51°17.856 3°1.08 8.1789 3.157726 29.750718 10.376563
2005-04-07 08:20:42 51°17.857 3°1.082 8.1779 3.149934 29.668827 10.376563
2005-04-07 08:20:46 51°17.857 3°1.084 8.1828 3.148987 29.658955 10.376563
2005-04-07 08:20:50 51°17.857 3°1.085 8.1789 3.15183 29.687869 10.477691
2005-04-07 08:20:55 51°17.858 3°1.088 8.1857 3.146881 29.636317 10.410272
2005-04-07 08:21:01 51°17.859 3°1.09 8.1856 3.142248 29.586664 10.410272
2005-04-07 08:21:06 51°17.859 3°1.091 8.1842 3.142248 29.586664 10.410272
2005-04-07 08:21:11 51°17.86 3°1.095 8.1836 3.152988 29.699936 10.443982
2005-04-07 08:21:16 51°17.86 3°1.097 8.1841 3.154989 29.721485 10.54511
2005-04-07 08:21:21 51°17.861 3°1.098 8.1867 3.15541 29.725169 10.578819
2005-04-07 08:21:26 51°17.862 3°1.101 8.1814 3.159095 29.762163 10.578819
2005-04-07 08:21:32 51°17.862 3°1.104 8.185 3.158358 29.751662 10.679947
2005-04-07 08:21:36 51°17.862 3°1.104 8.1915 3.158358 29.751662 10.679947
2005-04-07 08:21:41 51°17.863 3°1.108 8.191 3.151935 29.686855 10.713657
2005-04-07 08:21:46 51°17.864 3°1.11 8.1876 3.155304 29.721255 10.747366
2005-04-07 08:21:52 51°17.865 3°1.113 8.1891 3.152567 29.69203 10.814785
2005-04-07 08:21:56 51°17.865 3°1.115 8.1816 3.161096 29.780191 10.679947
2005-04-07 08:22:01 51°17.866 3°1.117 8.1819 3.160148 29.76961 10.747366
2005-04-07 08:22:06 51°17.866 3°1.119 8.1817 3.160148 29.76961 10.747366
2005-04-07 08:22:11 51°17.867 3°1.121 8.1854 3.15383 29.701674 10.713657
2005-04-07 08:22:16 51°17.867 3°1.123 8.1847 3.156252 29.726199 10.612529
2005-04-07 08:22:21 51°17.868 3°1.125 8.1884 3.146776 29.6282 10.814785
2005-04-07 08:22:26 51°17.869 3°1.128 8.1924 3.152461 29.687416 10.781076
2005-04-07 08:22:30 51°17.869 3°1.131 8.1848 3.155726 29.724235 10.882204
2005-04-07 08:22:36 51°17.87 3°1.133 8.1862 3.155726 29.724235 10.882204
2005-04-07 08:22:42 51°17.87 3°1.135 8.1854 3.15383 29.705193 10.949623
2005-04-07 08:22:46 51°17.871 3°1.138 8.1815 3.156041 29.72823 11.017042
2005-04-07 08:22:51 51°17.871 3°1.139 8.1812 3.15899 29.75895 10.949623
2005-04-07 08:22:56 51°17.871 3°1.141 8.1805 3.144775 29.610174 11.050751
2005-04-07 08:23:02 51°17.872 3°1.144 8.1801 3.150777 29.670572 11.050751
2005-04-07 08:23:07 51°17.873 3°1.147 8.184 3.150777 29.670572 11.050751
2005-04-07 08:23:11 51°17.873 3°1.148 8.1804 3.159411 29.759814 11.08446
2005-04-07 08:23:16 51°17.874 3°1.149 8.183 3.150987 29.673468 11.151879
2005-04-07 08:23:21 51°17.875 3°1.152 8.1826 3.144249 29.604691 11.185589
2005-04-07 08:23:27 51°17.875 3°1.155 8.1841 3.157937 29.747978 11.421554
2005-04-07 08:23:31 51°17.876 3°1.157 8.1815 3.155515 29.726266 11.455264
2005-04-07 08:23:36 51°17.876 3°1.159 8.1827 3.155515 29.726266 11.455264
2005-04-07 08:23:42 51°17.877 3°1.161 8.1823 3.149513 29.663034 11.354136
2005-04-07 08:23:46 51°17.878 3°1.164 8.1864 3.157621 29.746801 11.421554
2005-04-07 08:23:52 51°17.878 3°1.166 8.1829 3.15562 29.725955 11.387845
2005-04-07 08:23:56 51°17.879 3°1.168 8.1833 3.147302 29.640001 11.488973
2005-04-07 08:24:01 51°17.88 3°1.171 8.1828 3.155831 29.728854 11.488973
2005-04-07 08:24:06 51°17.88 3°1.173 8.1797 3.155831 29.728854 11.488973
2005-04-07 08:24:12 51°17.881 3°1.177 8.1807 3.159306 29.765768 11.623811
2005-04-07 08:24:16 51°17.882 3°1.178 8.1833 3.141511 29.57969 11.556392
2005-04-07 08:24:22 51°17.882 3°1.18 8.1825 3.146039 29.626841 11.623811
2005-04-07 08:24:26 51°17.883 3°1.183 8.1845 3.162254 29.795085 11.623811
2005-04-07 08:24:31 51°17.884 3°1.186 8.1785 3.158674 29.758479 11.556392
2005-04-07 08:24:37 51°17.885 3°1.188 8.1768 3.158674 29.758479 11.556392
2005-04-07 08:24:42 51°17.885 3°1.191 8.1801 3.142038 29.585172 11.724939
2005-04-07 08:24:46 51°17.886 3°1.192 8.1828 3.153198 29.700722 11.724939
2005-04-07 08:24:51 51°17.886 3°1.194 8.1831 3.142775 29.591445 11.65752
2005-04-07 08:24:56 51°17.887 3°1.197 8.1849 3.158674 29.757774 11.65752
2005-04-07 08:25:02 51°17.888 3°1.201 8.1844 3.140985 29.574208 11.724939
2005-04-07 08:25:06 51°17.888 3°1.202 8.1833 3.140985 29.574208 11.724939
2005-04-07 08:25:12 51°17.889 3°1.204 8.1833 3.160148 29.775253 11.590101
2005-04-07 08:25:16 51°17.89 3°1.208 8.1818 3.142985 29.595742 11.69123
2005-04-07 08:25:21 51°17.891 3°1.21 8.1786 3.153725 29.706911 11.826067
2005-04-07 08:25:26 51°17.892 3°1.212 8.1765 3.160569 29.778232 11.69123
2005-04-07 08:25:31 51°17.892 3°1.214 8.184 3.152883 29.698839 11.758648
2005-04-07 08:25:36 51°17.893 3°1.216 8.1889 3.152883 29.698839 11.758648
2005-04-07 08:25:42 51°17.894 3°1.219 8.1905 3.159621 29.769766 11.556392
2005-04-07 08:25:46 51°17.895 3°1.222 8.1908 3.149934 29.668124 11.69123
2005-04-07 08:25:52 51°17.896 3°1.225 8.1846 3.147407 29.642503 11.724939
2005-04-07 08:25:56 51°17.896 3°1.227 8.1812 3.152461 29.693747 11.758648
2005-04-07 08:26:01 51°17.897 3°1.229 8.1876 3.155199 29.722271 11.590101
2005-04-07 08:26:06 51°17.898 3°1.232 8.1914 3.155199 29.722271 11.590101
2005-04-07 08:26:12 51°17.899 3°1.235 8.1809 3.141406 29.578594 11.65752
2005-04-07 08:26:16 51°17.9 3°1.236 8.1826 3.140563 29.568422 11.826067
2005-04-07 08:26:22 51°17.901 3°1.239 8.1802 3.143933 29.602104 11.758648
2005-04-07 08:26:26 51°17.902 3°1.243 8.1766 3.158463 29.754169 11.69123
2005-04-07 08:26:32 51°17.903 3°1.245 8.1782 3.154146 29.709892 11.792358
2005-04-07 08:26:35 51°17.903 3°1.247 8.18 3.154146 29.709892 11.792358
2005-04-07 08:26:41 51°17.904 3°1.25 8.1799 3.148355 29.648861 11.758648
2005-04-07 08:26:46 51°17.905 3°1.251 8.18 3.150777 29.67479 11.826067
2005-04-07 08:26:51 51°17.906 3°1.254 8.1815 3.152251 29.69085 11.859777
2005-04-07 08:26:56 51°17.907 3°1.256 8.1843 3.154041 29.711611 11.758648
2005-04-07 08:27:01 51°17.908 3°1.258 8.187 3.154462 29.715295 11.792358
2005-04-07 08:27:06 51°17.909 3°1.261 8.1846 3.154462 29.715295 11.792358
2005-04-07 08:27:11 51°17.91 3°1.263 8.1835 3.160253 29.775645 11.724939
2005-04-07 08:27:16 51°17.91 3°1.265 8.1833 3.151303 29.682384 11.927195
2005-04-07 08:27:21 51°17.912 3°1.268 8.1835 3.152883 29.698839 11.826067
2005-04-07 08:27:26 51°17.913 3°1.271 8.1821 3.155515 29.727675 11.724939
2005-04-07 08:27:31 51°17.914 3°1.273 8.1795 3.147092 29.63851 11.758648
2005-04-07 08:27:36 51°17.915 3°1.276 8.1824 3.147092 29.63851 11.758648
2005-04-07 08:27:42 51°17.916 3°1.279 8.1799 3.160674 29.779329 11.792358
2005-04-07 08:27:46 51°17.916 3°1.28 8.1812 3.150671 29.675802 11.724939
2005-04-07 08:27:51 51°17.917 3°1.283 8.1888 3.155726 29.728461 11.65752
2005-04-07 08:27:56 51°17.918 3°1.286 8.1796 3.147197 29.640309 11.556392
2005-04-07 08:28:01 51°17.919 3°1.288 8.1798 3.157831 29.752521 11.590101
2005-04-07 08:28:06 51°17.921 3°1.29 8.1784 3.157831 29.752521 11.590101
2005-04-07 08:28:11 51°17.921 3°1.293 8.1805 3.150777 29.677602 11.590101
2005-04-07 08:28:16 51°17.922 3°1.295 8.182 3.143301 29.597629 11.623811
2005-04-07 08:28:21 51°17.924 3°1.298 8.1839 3.142353 29.588462 11.522683
2005-04-07 08:28:26 51°17.925 3°1.301 8.1829 3.146986 29.636009 11.590101
2005-04-07 08:28:32 51°17.925 3°1.303 8.1817 3.148987 29.658252 11.455264
2005-04-07 08:28:36 51°17.926 3°1.305 8.1807 3.148987 29.658252 11.455264
2005-04-07 08:28:42 51°17.927 3°1.308 8.189 3.154988 29.720076 11.65752
2005-04-07 08:28:46 51°17.928 3°1.31 8.1865 3.154146 29.712004 11.421554
2005-04-07 08:28:51 51°17.929 3°1.312 8.1885 3.154567 29.714984 11.421554
2005-04-07 08:28:56 51°17.93 3°1.314 8.1882 3.149619 29.662725 11.522683
2005-04-07 08:29:01 51°17.931 3°1.317 8.1868 3.149408 29.661234 11.387845
2005-04-07 08:29:06 51°17.932 3°1.32 8.1882 3.149408 29.661234 11.387845
2005-04-07 08:29:12 51°17.933 3°1.323 8.1832 3.152883 29.697431 11.455264
2005-04-07 08:29:16 51°17.934 3°1.325 8.1835 3.141406 29.577893 11.522683
2005-04-07 08:29:22 51°17.935 3°1.327 8.1838 3.143933 29.603506 11.455264
2005-04-07 08:29:26 51°17.936 3°1.329 8.1898 3.149303 29.658732 11.354136
2005-04-07 08:29:32 51°17.937 3°1.333 8.1844 3.144775 29.610875 11.455264
2005-04-07 08:29:36 51°17.938 3°1.334 8.1851 3.144775 29.610875 11.455264
2005-04-07 08:29:42 51°17.938 3°1.337 8.1933 3.1413 29.573994 11.455264
2005-04-07 08:29:46 51°17.939 3°1.34 8.2045 3.14288 29.591841 11.455264
2005-04-07 08:29:51 51°17.94 3°1.343 8.1944 3.1413 29.574694 11.387845
2005-04-07 08:29:56 51°17.941 3°1.345 8.1888 3.147934 29.643772 11.522683
2005-04-07 08:30:01 51°17.942 3°1.347 8.1906 3.150461 29.668687 11.455264
2005-04-07 08:30:06 51°17.943 3°1.35 8.1879 3.150461 29.668687 11.455264
2005-04-07 08:30:11 51°17.944 3°1.353 8.1859 3.152672 29.691016 11.522683
2005-04-07 08:30:16 51°17.945 3°1.354 8.1862 3.151935 29.681932 11.421554
2005-04-07 08:30:21 51°17.946 3°1.358 8.1899 3.151198 29.672147 11.455264
2005-04-07 08:30:26 51°17.947 3°1.361 8.1962 3.144249 29.600484 11.488973
2005-04-07 08:30:32 51°17.948 3°1.365 8.1885 3.150566 29.668378 11.488973
2005-04-07 08:30:36 51°17.949 3°1.367 8.184 3.150566 29.668378 11.488973
2005-04-07 08:30:42 51°17.949 3°1.37 8.1841 3.145196 29.61456 11.488973
2005-04-07 08:30:46 51°17.95 3°1.373 8.1884 3.154357 29.709974 11.522683
2005-04-07 08:30:51 51°17.951 3°1.375 8.1862 3.151198 29.678474 11.65752
2005-04-07 08:30:56 51°17.952 3°1.378 8.1863 3.151093 29.677377 11.488973
2005-04-07 08:31:02 51°17.953 3°1.381 8.1817 3.154778 29.712954 11.556392
2005-04-07 08:31:06 51°17.953 3°1.384 8.1844 3.154778 29.712954 11.556392
2005-04-07 08:31:12 51°17.954 3°1.387 8.1885 3.146354 29.625217 11.522683
2005-04-07 08:31:16 51°17.955 3°1.39 8.185 3.149303 29.655921 11.488973
2005-04-07 08:31:22 51°17.956 3°1.394 8.1843 3.146881 29.632104 11.455264
2005-04-07 08:31:26 51°17.956 3°1.396 8.1831 3.1393 29.551065 11.623811
2005-04-07 08:31:31 51°17.957 3°1.398 8.1821 3.142669 29.586844 11.65752
2005-04-07 08:31:36 51°17.958 3°1.401 8.1836 3.142669 29.586844 11.65752
2005-04-07 08:31:42 51°17.959 3°1.405 8.1847 3.147513 29.637981 11.556392
2005-04-07 08:31:46 51°17.959 3°1.407 8.1853 3.142353 29.584256 11.522683
2005-04-07 08:31:51 51°17.96 3°1.41 8.1831 3.141195 29.574299 11.590101
2005-04-07 08:31:56 51°17.961 3°1.413 8.1849 3.147618 29.641184 11.590101
2005-04-07 08:32:02 51°17.962 3°1.416 8.1878 3.148144 29.646668 11.65752
2005-04-07 08:32:06 51°17.963 3°1.419 8.1877 3.148144 29.646668 11.65752
2005-04-07 08:32:12 51°17.964 3°1.424 8.1922 3.146354 29.628025 11.623811
2005-04-07 08:32:16 51°17.964 3°1.425 8.1891 3.151724 29.683958 11.556392
2005-04-07 08:32:22 51°17.965 3°1.429 8.185 3.154251 29.709581 11.590101
2005-04-07 08:32:26 51°17.966 3°1.431 8.1875 3.146565 29.629516 11.623811
2005-04-07 08:32:31 51°17.966 3°1.434 8.1862 3.152988 29.69501 11.859777
2005-04-07 08:32:36 51°17.967 3°1.436 8.1849 3.152988 29.69501 11.859777
2005-04-07 08:32:42 51°17.968 3°1.44 8.1846 3.147407 29.636885 11.556392
2005-04-07 08:32:46 51°17.969 3°1.443 8.1862 3.138563 29.543393 11.758648
2005-04-07 08:32:52 51°17.97 3°1.446 8.1838 3.139405 29.552862 11.488973
2005-04-07 08:32:56 51°17.971 3°1.449 8.1828 3.144249 29.604691 11.556392
2005-04-07 08:33:02 51°17.972 3°1.452 8.1828 3.147302 29.63649 11.590101
2005-04-07 08:33:06 51°17.973 3°1.454 8.1891 3.147302 29.63649 11.590101
2005-04-07 08:33:11 51°17.976 3°1.457 8.1906 3.120558 29.358136 11.623811
2005-04-07 08:33:16 51°17.978 3°1.458 8.1864 3.135194 29.510419 11.724939
2005-04-07 08:33:21 51°17.981 3°1.461 8.1884 3.14667 29.630613 11.623811
2005-04-07 08:33:26 51°17.984 3°1.464 8.1859 3.153514 29.702606 11.623811
2005-04-07 08:33:31 51°17.988 3°1.465 8.1879 3.15204 29.686545 11.590101
2005-04-07 08:33:36 51°17.993 3°1.466 8.1916 3.15204 29.686545 11.590101
2005-04-07 08:33:41 51°17.998 3°1.467 8.1935 3.154357 29.710678 11.65752
2005-04-07 08:33:46 51°18.003 3°1.468 8.1884 3.14825 29.64636 11.590101
2005-04-07 08:33:52 51°18.01 3°1.469 8.1894 3.149934 29.664609 11.65752
2005-04-07 08:33:57 51°18.017 3°1.47 8.1875 3.15383 29.705193 11.724939
2005-04-07 08:34:01 51°18.023 3°1.471 8.19 3.153409 29.701509 11.556392
2005-04-07 08:34:06 51°18.03 3°1.473 8.1923 3.153409 29.701509 11.556392
2005-04-07 08:34:12 51°18.037 3°1.476 8.1912 3.14667 29.631315 11.792358
2005-04-07 08:34:16 51°18.043 3°1.477 8.1892 3.155304 29.718439 11.623811
2005-04-07 08:34:22 51°18.052 3°1.479 8.1916 3.154883 29.713347 11.522683
2005-04-07 08:34:26 51°18.058 3°1.48 8.1985 3.153409 29.699398 11.320426
2005-04-07 08:34:31 51°18.065 3°1.484 8.2052 3.153725 29.702689 11.590101
2005-04-07 08:34:36 51°18.071 3°1.487 8.1941 3.153725 29.702689 11.590101
2005-04-07 08:34:41 51°18.078 3°1.491 8.1892 3.154673 29.711153 11.724939
2005-04-07 08:34:46 51°18.085 3°1.497 8.1938 3.155199 29.715934 11.623811
2005-04-07 08:34:50 51°18.09 3°1.501 8.2104 3.153725 29.697764 11.623811
2005-04-07 08:34:57 51°18.098 3°1.511 8.1936 3.153304 29.692673 11.387845
2005-04-07 08:35:02 51°18.105 3°1.516 8.1913 3.146881 29.624384 11.556392
2005-04-07 08:35:06 51°18.11 3°1.523 8.1987 3.146881 29.624384 11.556392
2005-04-07 08:35:12 51°18.116 3°1.532 8.2021 3.153725 29.69706 11.522683
2005-04-07 08:35:16 51°18.121 3°1.537 8.1938 3.154041 29.701054 11.623811
2005-04-07 08:35:21 51°18.127 3°1.546 8.1942 3.152567 29.684997 11.590101
2005-04-07 08:35:26 51°18.134 3°1.555 8.1996 3.152567 29.682888 11.590101
2005-04-07 08:35:31 51°18.14 3°1.563 8.2045 3.15183 29.674509 11.488973
2005-04-07 08:35:36 51°18.146 3°1.57 8.1995 3.15183 29.674509 11.488973
2005-04-07 08:35:42 51°18.153 3°1.58 8.202 3.147618 29.630654 11.421554
2005-04-07 08:35:46 51°18.158 3°1.588 8.214 3.142143 29.573656 11.219298
2005-04-07 08:35:52 51°18.164 3°1.597 8.1985 3.147723 29.633856 11.253007
2005-04-07 08:35:56 51°18.169 3°1.603 8.206 3.148776 29.64482 11.320426
2005-04-07 08:36:02 51°18.174 3°1.615 8.221 3.145196 29.606143 11.219298
2005-04-07 08:36:06 51°18.18 3°1.621 8.2047 3.145196 29.606143 11.219298
2005-04-07 08:36:12 51°18.185 3°1.632 8.2037 3.14467 29.600662 11.286717
2005-04-07 08:36:16 51°18.189 3°1.639 8.2016 3.145407 29.606232 11.185589
2005-04-07 08:36:22 51°18.194 3°1.651 8.2035 3.137931 29.526325 11.253007
2005-04-07 08:36:26 51°18.197 3°1.659 8.2136 3.141827 29.565467 11.185589
2005-04-07 08:36:31 51°18.201 3°1.667 8.213 3.140984 29.553902 11.354136
2005-04-07 08:36:36 51°18.205 3°1.677 8.2085 3.140984 29.553902 11.354136
2005-04-07 08:36:42 51°18.209 3°1.688 8.2127 3.142248 29.566349 11.286717
2005-04-07 08:36:46 51°18.212 3°1.697 8.2096 3.143301 29.578707 11.253007
2005-04-07 08:36:51 51°18.215 3°1.706 8.2096 3.14667 29.614476 11.219298
2005-04-07 08:36:56 51°18.217 3°1.716 8.2148 3.146249 29.609391 11.11817
2005-04-07 08:37:01 51°18.22 3°1.725 8.2166 3.139616 29.536862 11.219298
2005-04-07 08:37:06 51°18.223 3°1.735 8.2166 3.139616 29.536862 11.219298
2005-04-07 08:37:12 51°18.226 3°1.745 8.2149 3.142143 29.562454 11.219298
2005-04-07 08:37:16 51°18.227 3°1.754 8.2136 3.139405 29.533972 11.151879
2005-04-07 08:37:22 51°18.231 3°1.766 8.2131 3.143301 29.575206 11.08446
2005-04-07 08:37:26 51°18.232 3°1.775 8.2169 3.14288 29.569423 11.151879
2005-04-07 08:37:31 51°18.234 3°1.785 8.2173 3.143827 29.577883 11.253007
2005-04-07 08:37:36 51°18.237 3°1.795 8.2164 3.143827 29.577883 11.253007
2005-04-07 08:37:41 51°18.238 3°1.805 8.2205 3.143406 29.570701 11.286717
2005-04-07 08:37:46 51°18.24 3°1.815 8.2176 3.140668 29.542921 11.421554
2005-04-07 08:37:52 51°18.242 3°1.826 8.2166 3.141405 29.550588 11.488973
2005-04-07 08:37:56 51°18.243 3°1.833 8.2295 3.137615 29.511159 11.387845
2005-04-07 08:38:00 51°18.245 3°1.841 8.2152 3.142774 29.564828 11.455264
2005-04-07 08:38:06 51°18.247 3°1.852 8.2163 3.142774 29.564828 11.455264
2005-04-07 08:38:11 51°18.25 3°1.862 8.2207 3.141932 29.554666 11.522683
2005-04-07 08:38:16 51°18.252 3°1.869 8.2196 3.142353 29.558348 11.455264
2005-04-07 08:38:22 51°18.256 3°1.879 8.2208 3.141195 29.5456 11.387845
2005-04-07 08:38:26 51°18.258 3°1.887 8.2244 3.142142 29.556157 11.455264
2005-04-07 08:38:31 51°18.261 3°1.896 8.2271 3.140774 29.54052 11.455264
2005-04-07 08:38:36 51°18.264 3°1.905 8.222 3.140774 29.54052 11.455264
2005-04-07 08:38:41 51°18.267 3°1.914 8.23 3.134351 29.473724 11.421554
2005-04-07 08:38:46 51°18.27 3°1.923 8.2235 3.13772 29.50946 11.354136
2005-04-07 08:38:52 51°18.274 3°1.933 8.2224 3.138247 29.514936 11.455264
2005-04-07 08:38:56 51°18.275 3°1.942 8.2249 3.138141 29.512444 11.286717
2005-04-07 08:39:02 51°18.278 3°1.952 8.2234 3.138247 29.512142 11.219298
2005-04-07 08:39:07 51°18.279 3°1.962 8.2278 3.138247 29.512142 11.219298
2005-04-07 08:39:12 51°18.281 3°1.971 8.2218 3.140563 29.536233 11.387845
2005-04-07 08:39:16 51°18.282 3°1.979 8.2248 3.13772 29.505969 11.387845
2005-04-07 08:39:22 51°18.283 3°1.991 8.221 3.1393 29.522393 11.455264
2005-04-07 08:39:26 51°18.284 3°2 8.2264 3.141511 29.546089 11.590101
2005-04-07 08:39:31 51°18.286 3°2.01 8.2233 3.139615 29.525678 11.556392
2005-04-07 08:39:36 51°18.287 3°2.019 8.2232 3.139615 29.525678 11.556392
2005-04-07 08:39:41 51°18.288 3°2.03 8.2251 3.140668 29.53593 11.488973
2005-04-07 08:39:46 51°18.29 3°2.04 8.2308 3.140984 29.538516 11.421554
2005-04-07 08:39:50 51°18.291 3°2.048 8.2332 3.139931 29.527566 11.455264
2005-04-07 08:39:56 51°18.293 3°2.059 8.2338 3.138247 29.510047 11.387845
2005-04-07 08:40:02 51°18.295 3°2.071 8.2271 3.139721 29.523979 11.286717
2005-04-07 08:40:06 51°18.297 3°2.08 8.2301 3.139721 29.523979 11.286717
2005-04-07 08:40:11 51°18.298 3°2.09 8.2284 3.138457 29.512237 11.455264
2005-04-07 08:40:16 51°18.3 3°2.1 8.2232 3.13414 29.46735 11.354136
2005-04-07 08:40:22 51°18.302 3°2.112 8.2254 3.135509 29.479489 11.522683
2005-04-07 08:40:26 51°18.303 3°2.122 8.2283 3.133614 29.459088 11.488973
2005-04-07 08:40:31 51°18.305 3°2.132 8.2261 3.140668 29.532436 11.65752
2005-04-07 08:40:36 51°18.306 3°2.141 8.2324 3.140668 29.532436 11.65752
2005-04-07 08:40:42 51°18.308 3°2.153 8.2282 3.138984 29.514219 11.488973
2005-04-07 08:40:46 51°18.31 3°2.161 8.2336 3.133614 29.457694 11.65752
2005-04-07 08:40:52 51°18.313 3°2.173 8.2283 3.135298 29.476602 11.590101
2005-04-07 08:40:56 51°18.315 3°2.181 8.2252 3.137615 29.500685 11.724939
2005-04-07 08:41:02 51°18.318 3°2.192 8.2266 3.139299 29.517504 11.590101
2005-04-07 08:41:06 51°18.32 3°2.2 8.2267 3.139299 29.517504 11.590101
2005-04-07 08:41:11 51°18.321 3°2.21 8.2331 3.137088 29.493816 11.623811
2005-04-07 08:41:16 51°18.325 3°2.219 8.2301 3.139721 29.521185 11.65752
2005-04-07 08:41:22 51°18.326 3°2.229 8.2343 3.130139 29.420883 11.69123
2005-04-07 08:41:26 51°18.329 3°2.237 8.2348 3.136141 29.483267 11.69123
2005-04-07 08:41:31 51°18.33 3°2.245 8.2329 3.138036 29.505064 11.556392
2005-04-07 08:41:36 51°18.332 3°2.254 8.2374 3.138036 29.505064 11.556392
2005-04-07 08:41:41 51°18.335 3°2.262 8.2332 3.134667 29.470034 11.590101
2005-04-07 08:41:46 51°18.336 3°2.271 8.242 3.133193 29.453316 11.590101
2005-04-07 08:41:52 51°18.339 3°2.28 8.2354 3.137404 29.495704 11.522683
2005-04-07 08:41:56 51°18.341 3°2.286 8.2371 3.131719 29.435209 11.590101